<?xml version="1.0" encoding="UTF-8" standalone="no" ?>
<gpx xmlns="http://www.topografix.com/GPX/1/1" xmlns:xsi="http://www.w3.org/2001/XMLSchema-instance" xsi:schemaLocation="http://www.topografix.com/GPX/1/1 http://www.topografix.com/GPX/1/1/gpx.xsd" version="1.1" creator="VisuGPX - https://www.visugpx.com">
  <metadata>
    <name>4 - &amp;quot;Via Garona&amp;quot;  Longages à Carbonne</name>
    <desc><![CDATA[Parcours réalisé.
]]></desc>
  </metadata>
  <trk>
    <name><![CDATA[8 juil. 2022 à 08:14:42]]></name>
    <cmt><![CDATA[8 juil. 2022 à 08:14:42]]></cmt>
    <trkseg>
      <trkpt lat="43.35641" lon="1.25194">
        <ele>197</ele>
        <time>2022-07-08T06:14:42Z</time>
      </trkpt>
      <trkpt lat="43.35645" lon="1.25199">
        <ele>197</ele>
        <time>2022-07-08T06:15:29Z</time>
      </trkpt>
      <trkpt lat="43.35646" lon="1.25212">
        <ele>197</ele>
        <time>2022-07-08T06:15:42Z</time>
      </trkpt>
      <trkpt lat="43.35641" lon="1.25208">
        <ele>197</ele>
        <time>2022-07-08T06:16:37Z</time>
      </trkpt>
      <trkpt lat="43.3564" lon="1.25197">
        <ele>197</ele>
        <time>2022-07-08T06:17:39Z</time>
      </trkpt>
      <trkpt lat="43.35632" lon="1.25198">
        <ele>197</ele>
        <time>2022-07-08T06:17:51Z</time>
      </trkpt>
      <trkpt lat="43.35628" lon="1.25195">
        <ele>197</ele>
        <time>2022-07-08T06:17:55Z</time>
      </trkpt>
      <trkpt lat="43.35618" lon="1.25193">
        <ele>197</ele>
        <time>2022-07-08T06:18:06Z</time>
      </trkpt>
      <trkpt lat="43.35614" lon="1.2519">
        <ele>197</ele>
        <time>2022-07-08T06:18:09Z</time>
      </trkpt>
      <trkpt lat="43.35609" lon="1.25188">
        <ele>197</ele>
        <time>2022-07-08T06:18:14Z</time>
      </trkpt>
      <trkpt lat="43.35605" lon="1.25184">
        <ele>197</ele>
        <time>2022-07-08T06:18:17Z</time>
      </trkpt>
      <trkpt lat="43.35599" lon="1.25183">
        <ele>197</ele>
        <time>2022-07-08T06:18:24Z</time>
      </trkpt>
      <trkpt lat="43.35594" lon="1.25186">
        <ele>197</ele>
        <time>2022-07-08T06:18:29Z</time>
      </trkpt>
      <trkpt lat="43.35581" lon="1.25179">
        <ele>197</ele>
        <time>2022-07-08T06:18:41Z</time>
      </trkpt>
      <trkpt lat="43.35577" lon="1.25182">
        <ele>197</ele>
        <time>2022-07-08T06:18:44Z</time>
      </trkpt>
      <trkpt lat="43.35573" lon="1.25188">
        <ele>197</ele>
        <time>2022-07-08T06:18:47Z</time>
      </trkpt>
      <trkpt lat="43.3556" lon="1.25186">
        <ele>198</ele>
        <time>2022-07-08T06:18:57Z</time>
      </trkpt>
      <trkpt lat="43.35557" lon="1.25181">
        <ele>198</ele>
        <time>2022-07-08T06:19:01Z</time>
      </trkpt>
      <trkpt lat="43.35527" lon="1.25157">
        <ele>198</ele>
        <time>2022-07-08T06:19:33Z</time>
      </trkpt>
      <trkpt lat="43.35522" lon="1.2515">
        <ele>197</ele>
        <time>2022-07-08T06:19:44Z</time>
      </trkpt>
      <trkpt lat="43.35518" lon="1.25147">
        <ele>197</ele>
        <time>2022-07-08T06:19:50Z</time>
      </trkpt>
      <trkpt lat="43.35508" lon="1.25145">
        <ele>198</ele>
        <time>2022-07-08T06:20:01Z</time>
      </trkpt>
      <trkpt lat="43.35501" lon="1.25146">
        <ele>198</ele>
        <time>2022-07-08T06:20:10Z</time>
      </trkpt>
      <trkpt lat="43.35487" lon="1.25138">
        <ele>198</ele>
        <time>2022-07-08T06:20:23Z</time>
      </trkpt>
      <trkpt lat="43.35474" lon="1.2513">
        <ele>198</ele>
        <time>2022-07-08T06:20:45Z</time>
      </trkpt>
      <trkpt lat="43.35467" lon="1.25129">
        <ele>198</ele>
        <time>2022-07-08T06:21:03Z</time>
      </trkpt>
      <trkpt lat="43.35465" lon="1.25134">
        <ele>198</ele>
        <time>2022-07-08T06:21:08Z</time>
      </trkpt>
      <trkpt lat="43.3546" lon="1.25136">
        <ele>198</ele>
        <time>2022-07-08T06:21:12Z</time>
      </trkpt>
      <trkpt lat="43.35455" lon="1.25135">
        <ele>198</ele>
        <time>2022-07-08T06:21:17Z</time>
      </trkpt>
      <trkpt lat="43.35425" lon="1.25118">
        <ele>198</ele>
        <time>2022-07-08T06:21:48Z</time>
      </trkpt>
      <trkpt lat="43.35413" lon="1.25113">
        <ele>198</ele>
        <time>2022-07-08T06:21:58Z</time>
      </trkpt>
      <trkpt lat="43.35409" lon="1.25113">
        <ele>198</ele>
        <time>2022-07-08T06:22:02Z</time>
      </trkpt>
      <trkpt lat="43.35404" lon="1.25115">
        <ele>198</ele>
        <time>2022-07-08T06:22:08Z</time>
      </trkpt>
      <trkpt lat="43.35398" lon="1.25114">
        <ele>198</ele>
        <time>2022-07-08T06:22:14Z</time>
      </trkpt>
      <trkpt lat="43.35371" lon="1.25099">
        <ele>198</ele>
        <time>2022-07-08T06:22:42Z</time>
      </trkpt>
      <trkpt lat="43.35367" lon="1.25096">
        <ele>198</ele>
        <time>2022-07-08T06:22:46Z</time>
      </trkpt>
      <trkpt lat="43.35354" lon="1.2509">
        <ele>198</ele>
        <time>2022-07-08T06:22:58Z</time>
      </trkpt>
      <trkpt lat="43.35349" lon="1.2509">
        <ele>198</ele>
        <time>2022-07-08T06:23:02Z</time>
      </trkpt>
      <trkpt lat="43.35334" lon="1.25082">
        <ele>198</ele>
        <time>2022-07-08T06:23:17Z</time>
      </trkpt>
      <trkpt lat="43.35325" lon="1.25079">
        <ele>198</ele>
        <time>2022-07-08T06:23:25Z</time>
      </trkpt>
      <trkpt lat="43.35295" lon="1.25065">
        <ele>198</ele>
        <time>2022-07-08T06:23:53Z</time>
      </trkpt>
      <trkpt lat="43.35291" lon="1.25064">
        <ele>198</ele>
        <time>2022-07-08T06:23:57Z</time>
      </trkpt>
      <trkpt lat="43.35286" lon="1.25062">
        <ele>198</ele>
        <time>2022-07-08T06:24:01Z</time>
      </trkpt>
      <trkpt lat="43.35277" lon="1.25057">
        <ele>198</ele>
        <time>2022-07-08T06:24:13Z</time>
      </trkpt>
      <trkpt lat="43.35273" lon="1.25055">
        <ele>198</ele>
        <time>2022-07-08T06:24:17Z</time>
      </trkpt>
      <trkpt lat="43.35268" lon="1.25053">
        <ele>198</ele>
        <time>2022-07-08T06:24:21Z</time>
      </trkpt>
      <trkpt lat="43.35264" lon="1.25051">
        <ele>198</ele>
        <time>2022-07-08T06:24:25Z</time>
      </trkpt>
      <trkpt lat="43.3526" lon="1.2505">
        <ele>198</ele>
        <time>2022-07-08T06:24:29Z</time>
      </trkpt>
      <trkpt lat="43.35245" lon="1.25042">
        <ele>198</ele>
        <time>2022-07-08T06:24:44Z</time>
      </trkpt>
      <trkpt lat="43.35236" lon="1.25039">
        <ele>198</ele>
        <time>2022-07-08T06:24:52Z</time>
      </trkpt>
      <trkpt lat="43.35232" lon="1.25037">
        <ele>198</ele>
        <time>2022-07-08T06:24:55Z</time>
      </trkpt>
      <trkpt lat="43.3522" lon="1.25033">
        <ele>198</ele>
        <time>2022-07-08T06:25:07Z</time>
      </trkpt>
      <trkpt lat="43.35215" lon="1.25029">
        <ele>198</ele>
        <time>2022-07-08T06:25:11Z</time>
      </trkpt>
      <trkpt lat="43.35178" lon="1.25015">
        <ele>199</ele>
        <time>2022-07-08T06:25:45Z</time>
      </trkpt>
      <trkpt lat="43.35151" lon="1.25005">
        <ele>198</ele>
        <time>2022-07-08T06:26:14Z</time>
      </trkpt>
      <trkpt lat="43.35147" lon="1.25005">
        <ele>199</ele>
        <time>2022-07-08T06:27:46Z</time>
      </trkpt>
      <trkpt lat="43.35112" lon="1.24987">
        <ele>199</ele>
        <time>2022-07-08T06:28:19Z</time>
      </trkpt>
      <trkpt lat="43.35104" lon="1.24984">
        <ele>199</ele>
        <time>2022-07-08T06:28:26Z</time>
      </trkpt>
      <trkpt lat="43.35095" lon="1.24981">
        <ele>199</ele>
        <time>2022-07-08T06:28:33Z</time>
      </trkpt>
      <trkpt lat="43.35083" lon="1.24975">
        <ele>199</ele>
        <time>2022-07-08T06:28:45Z</time>
      </trkpt>
      <trkpt lat="43.35074" lon="1.24971">
        <ele>200</ele>
        <time>2022-07-08T06:28:54Z</time>
      </trkpt>
      <trkpt lat="43.35063" lon="1.24965">
        <ele>200</ele>
        <time>2022-07-08T06:29:05Z</time>
      </trkpt>
      <trkpt lat="43.35053" lon="1.24964">
        <ele>200</ele>
        <time>2022-07-08T06:29:12Z</time>
      </trkpt>
      <trkpt lat="43.35024" lon="1.24951">
        <ele>200</ele>
        <time>2022-07-08T06:29:41Z</time>
      </trkpt>
      <trkpt lat="43.35019" lon="1.2495">
        <ele>200</ele>
        <time>2022-07-08T06:29:45Z</time>
      </trkpt>
      <trkpt lat="43.35015" lon="1.24947">
        <ele>200</ele>
        <time>2022-07-08T06:29:49Z</time>
      </trkpt>
      <trkpt lat="43.35009" lon="1.24942">
        <ele>200</ele>
        <time>2022-07-08T06:29:55Z</time>
      </trkpt>
      <trkpt lat="43.34994" lon="1.24936">
        <ele>200</ele>
        <time>2022-07-08T06:30:08Z</time>
      </trkpt>
      <trkpt lat="43.34988" lon="1.24933">
        <ele>200</ele>
        <time>2022-07-08T06:30:15Z</time>
      </trkpt>
      <trkpt lat="43.34983" lon="1.24936">
        <ele>200</ele>
        <time>2022-07-08T06:30:22Z</time>
      </trkpt>
      <trkpt lat="43.34972" lon="1.24926">
        <ele>200</ele>
        <time>2022-07-08T06:30:30Z</time>
      </trkpt>
      <trkpt lat="43.34968" lon="1.24925">
        <ele>200</ele>
        <time>2022-07-08T06:30:33Z</time>
      </trkpt>
      <trkpt lat="43.34965" lon="1.24923">
        <ele>200</ele>
        <time>2022-07-08T06:30:36Z</time>
      </trkpt>
      <trkpt lat="43.34962" lon="1.24921">
        <ele>200</ele>
        <time>2022-07-08T06:30:39Z</time>
      </trkpt>
      <trkpt lat="43.34958" lon="1.24921">
        <ele>200</ele>
        <time>2022-07-08T06:30:42Z</time>
      </trkpt>
      <trkpt lat="43.34927" lon="1.24903">
        <ele>200</ele>
        <time>2022-07-08T06:31:13Z</time>
      </trkpt>
      <trkpt lat="43.34894" lon="1.24892">
        <ele>200</ele>
        <time>2022-07-08T06:31:45Z</time>
      </trkpt>
      <trkpt lat="43.34889" lon="1.24894">
        <ele>200</ele>
        <time>2022-07-08T06:31:49Z</time>
      </trkpt>
      <trkpt lat="43.3488" lon="1.24894">
        <ele>200</ele>
        <time>2022-07-08T06:31:57Z</time>
      </trkpt>
      <trkpt lat="43.34865" lon="1.24898">
        <ele>200</ele>
        <time>2022-07-08T06:32:05Z</time>
      </trkpt>
      <trkpt lat="43.34861" lon="1.24895">
        <ele>200</ele>
        <time>2022-07-08T06:32:08Z</time>
      </trkpt>
      <trkpt lat="43.34849" lon="1.24893">
        <ele>200</ele>
        <time>2022-07-08T06:32:16Z</time>
      </trkpt>
      <trkpt lat="43.34835" lon="1.24881">
        <ele>201</ele>
        <time>2022-07-08T06:32:31Z</time>
      </trkpt>
      <trkpt lat="43.34822" lon="1.24875">
        <ele>201</ele>
        <time>2022-07-08T06:32:43Z</time>
      </trkpt>
      <trkpt lat="43.34813" lon="1.24874">
        <ele>201</ele>
        <time>2022-07-08T06:32:52Z</time>
      </trkpt>
      <trkpt lat="43.34805" lon="1.2486">
        <ele>200</ele>
        <time>2022-07-08T06:33:03Z</time>
      </trkpt>
      <trkpt lat="43.34798" lon="1.24852">
        <ele>200</ele>
        <time>2022-07-08T06:33:10Z</time>
      </trkpt>
      <trkpt lat="43.34795" lon="1.24846">
        <ele>201</ele>
        <time>2022-07-08T06:33:13Z</time>
      </trkpt>
      <trkpt lat="43.34791" lon="1.24844">
        <ele>200</ele>
        <time>2022-07-08T06:33:17Z</time>
      </trkpt>
      <trkpt lat="43.34789" lon="1.2484">
        <ele>200</ele>
        <time>2022-07-08T06:33:20Z</time>
      </trkpt>
      <trkpt lat="43.34783" lon="1.24839">
        <ele>200</ele>
        <time>2022-07-08T06:33:26Z</time>
      </trkpt>
      <trkpt lat="43.34776" lon="1.24848">
        <ele>200</ele>
        <time>2022-07-08T06:33:38Z</time>
      </trkpt>
      <trkpt lat="43.3477" lon="1.24857">
        <ele>200</ele>
        <time>2022-07-08T06:33:46Z</time>
      </trkpt>
      <trkpt lat="43.34754" lon="1.24887">
        <ele>200</ele>
        <time>2022-07-08T06:34:08Z</time>
      </trkpt>
      <trkpt lat="43.34735" lon="1.24904">
        <ele>200</ele>
        <time>2022-07-08T06:34:32Z</time>
      </trkpt>
      <trkpt lat="43.34732" lon="1.24908">
        <ele>200</ele>
        <time>2022-07-08T06:34:35Z</time>
      </trkpt>
      <trkpt lat="43.34713" lon="1.24927">
        <ele>200</ele>
        <time>2022-07-08T06:34:54Z</time>
      </trkpt>
      <trkpt lat="43.34711" lon="1.24932">
        <ele>200</ele>
        <time>2022-07-08T06:34:58Z</time>
      </trkpt>
      <trkpt lat="43.34707" lon="1.24935">
        <ele>200</ele>
        <time>2022-07-08T06:35:01Z</time>
      </trkpt>
      <trkpt lat="43.34704" lon="1.24937">
        <ele>200</ele>
        <time>2022-07-08T06:35:05Z</time>
      </trkpt>
      <trkpt lat="43.34699" lon="1.2494">
        <ele>200</ele>
        <time>2022-07-08T06:35:10Z</time>
      </trkpt>
      <trkpt lat="43.34689" lon="1.24954">
        <ele>200</ele>
        <time>2022-07-08T06:35:22Z</time>
      </trkpt>
      <trkpt lat="43.34687" lon="1.24958">
        <ele>200</ele>
        <time>2022-07-08T06:35:26Z</time>
      </trkpt>
      <trkpt lat="43.34684" lon="1.24962">
        <ele>200</ele>
        <time>2022-07-08T06:35:30Z</time>
      </trkpt>
      <trkpt lat="43.34681" lon="1.24967">
        <ele>200</ele>
        <time>2022-07-08T06:35:34Z</time>
      </trkpt>
      <trkpt lat="43.34678" lon="1.2497">
        <ele>200</ele>
        <time>2022-07-08T06:35:38Z</time>
      </trkpt>
      <trkpt lat="43.34676" lon="1.24977">
        <ele>200</ele>
        <time>2022-07-08T06:36:27Z</time>
      </trkpt>
      <trkpt lat="43.34672" lon="1.24984">
        <ele>200</ele>
        <time>2022-07-08T06:36:40Z</time>
      </trkpt>
      <trkpt lat="43.3467" lon="1.2499">
        <ele>200</ele>
        <time>2022-07-08T06:36:44Z</time>
      </trkpt>
      <trkpt lat="43.34666" lon="1.24994">
        <ele>200</ele>
        <time>2022-07-08T06:36:49Z</time>
      </trkpt>
      <trkpt lat="43.34648" lon="1.25019">
        <ele>200</ele>
        <time>2022-07-08T06:37:10Z</time>
      </trkpt>
      <trkpt lat="43.34646" lon="1.25025">
        <ele>200</ele>
        <time>2022-07-08T06:37:14Z</time>
      </trkpt>
      <trkpt lat="43.34642" lon="1.2503">
        <ele>200</ele>
        <time>2022-07-08T06:37:19Z</time>
      </trkpt>
      <trkpt lat="43.34634" lon="1.25043">
        <ele>200</ele>
        <time>2022-07-08T06:37:32Z</time>
      </trkpt>
      <trkpt lat="43.34611" lon="1.25066">
        <ele>200</ele>
        <time>2022-07-08T06:37:57Z</time>
      </trkpt>
      <trkpt lat="43.34603" lon="1.25081">
        <ele>200</ele>
        <time>2022-07-08T06:38:10Z</time>
      </trkpt>
      <trkpt lat="43.34595" lon="1.25089">
        <ele>200</ele>
        <time>2022-07-08T06:38:20Z</time>
      </trkpt>
      <trkpt lat="43.3459" lon="1.25091">
        <ele>200</ele>
        <time>2022-07-08T06:38:24Z</time>
      </trkpt>
      <trkpt lat="43.34578" lon="1.25102">
        <ele>201</ele>
        <time>2022-07-08T06:38:35Z</time>
      </trkpt>
      <trkpt lat="43.34574" lon="1.25104">
        <ele>201</ele>
        <time>2022-07-08T06:38:39Z</time>
      </trkpt>
      <trkpt lat="43.34559" lon="1.25117">
        <ele>201</ele>
        <time>2022-07-08T06:38:55Z</time>
      </trkpt>
      <trkpt lat="43.34531" lon="1.25148">
        <ele>201</ele>
        <time>2022-07-08T06:39:29Z</time>
      </trkpt>
      <trkpt lat="43.34503" lon="1.25169">
        <ele>201</ele>
        <time>2022-07-08T06:40:00Z</time>
      </trkpt>
      <trkpt lat="43.34499" lon="1.25173">
        <ele>201</ele>
        <time>2022-07-08T06:40:04Z</time>
      </trkpt>
      <trkpt lat="43.34476" lon="1.2519">
        <ele>201</ele>
        <time>2022-07-08T06:40:26Z</time>
      </trkpt>
      <trkpt lat="43.34449" lon="1.25216">
        <ele>201</ele>
        <time>2022-07-08T06:40:57Z</time>
      </trkpt>
      <trkpt lat="43.34432" lon="1.25234">
        <ele>202</ele>
        <time>2022-07-08T06:41:18Z</time>
      </trkpt>
      <trkpt lat="43.34427" lon="1.25245">
        <ele>201</ele>
        <time>2022-07-08T06:41:25Z</time>
      </trkpt>
      <trkpt lat="43.34399" lon="1.25273">
        <ele>202</ele>
        <time>2022-07-08T06:41:57Z</time>
      </trkpt>
      <trkpt lat="43.34374" lon="1.25304">
        <ele>201</ele>
        <time>2022-07-08T06:42:28Z</time>
      </trkpt>
      <trkpt lat="43.34368" lon="1.25311">
        <ele>202</ele>
        <time>2022-07-08T06:42:35Z</time>
      </trkpt>
      <trkpt lat="43.34363" lon="1.25314">
        <ele>201</ele>
        <time>2022-07-08T06:42:39Z</time>
      </trkpt>
      <trkpt lat="43.34354" lon="1.25323">
        <ele>201</ele>
        <time>2022-07-08T06:42:50Z</time>
      </trkpt>
      <trkpt lat="43.34347" lon="1.2533">
        <ele>201</ele>
        <time>2022-07-08T06:42:58Z</time>
      </trkpt>
      <trkpt lat="43.34327" lon="1.25369">
        <ele>201</ele>
        <time>2022-07-08T06:43:31Z</time>
      </trkpt>
      <trkpt lat="43.34324" lon="1.25374">
        <ele>201</ele>
        <time>2022-07-08T06:43:35Z</time>
      </trkpt>
      <trkpt lat="43.34316" lon="1.25393">
        <ele>201</ele>
        <time>2022-07-08T06:43:51Z</time>
      </trkpt>
      <trkpt lat="43.34314" lon="1.25398">
        <ele>201</ele>
        <time>2022-07-08T06:43:54Z</time>
      </trkpt>
      <trkpt lat="43.34291" lon="1.25439">
        <ele>201</ele>
        <time>2022-07-08T06:44:29Z</time>
      </trkpt>
      <trkpt lat="43.34289" lon="1.25444">
        <ele>201</ele>
        <time>2022-07-08T06:44:34Z</time>
      </trkpt>
      <trkpt lat="43.34288" lon="1.25449">
        <ele>200</ele>
        <time>2022-07-08T06:44:46Z</time>
      </trkpt>
      <trkpt lat="43.34285" lon="1.25454">
        <ele>200</ele>
        <time>2022-07-08T06:44:59Z</time>
      </trkpt>
      <trkpt lat="43.34282" lon="1.2546">
        <ele>200</ele>
        <time>2022-07-08T06:45:07Z</time>
      </trkpt>
      <trkpt lat="43.34279" lon="1.25477">
        <ele>201</ele>
        <time>2022-07-08T06:45:20Z</time>
      </trkpt>
      <trkpt lat="43.34275" lon="1.2548">
        <ele>201</ele>
        <time>2022-07-08T06:45:24Z</time>
      </trkpt>
      <trkpt lat="43.34272" lon="1.25482">
        <ele>201</ele>
        <time>2022-07-08T06:45:28Z</time>
      </trkpt>
      <trkpt lat="43.34268" lon="1.25488">
        <ele>201</ele>
        <time>2022-07-08T06:45:34Z</time>
      </trkpt>
      <trkpt lat="43.34259" lon="1.25503">
        <ele>202</ele>
        <time>2022-07-08T06:45:48Z</time>
      </trkpt>
      <trkpt lat="43.34246" lon="1.25516">
        <ele>202</ele>
        <time>2022-07-08T06:46:15Z</time>
      </trkpt>
      <trkpt lat="43.34237" lon="1.25532">
        <ele>203</ele>
        <time>2022-07-08T06:46:31Z</time>
      </trkpt>
      <trkpt lat="43.34233" lon="1.25534">
        <ele>203</ele>
        <time>2022-07-08T06:46:35Z</time>
      </trkpt>
      <trkpt lat="43.34214" lon="1.25561">
        <ele>204</ele>
        <time>2022-07-08T06:47:06Z</time>
      </trkpt>
      <trkpt lat="43.3421" lon="1.25567">
        <ele>204</ele>
        <time>2022-07-08T06:47:24Z</time>
      </trkpt>
      <trkpt lat="43.34207" lon="1.2557">
        <ele>204</ele>
        <time>2022-07-08T06:47:28Z</time>
      </trkpt>
      <trkpt lat="43.34206" lon="1.25575">
        <ele>204</ele>
        <time>2022-07-08T06:47:32Z</time>
      </trkpt>
      <trkpt lat="43.34203" lon="1.25579">
        <ele>204</ele>
        <time>2022-07-08T06:47:36Z</time>
      </trkpt>
      <trkpt lat="43.342" lon="1.25582">
        <ele>204</ele>
        <time>2022-07-08T06:47:40Z</time>
      </trkpt>
      <trkpt lat="43.34193" lon="1.25589">
        <ele>204</ele>
        <time>2022-07-08T06:47:47Z</time>
      </trkpt>
      <trkpt lat="43.34192" lon="1.25594">
        <ele>204</ele>
        <time>2022-07-08T06:47:50Z</time>
      </trkpt>
      <trkpt lat="43.3419" lon="1.25597">
        <ele>204</ele>
        <time>2022-07-08T06:47:53Z</time>
      </trkpt>
      <trkpt lat="43.34186" lon="1.256">
        <ele>203</ele>
        <time>2022-07-08T06:47:57Z</time>
      </trkpt>
      <trkpt lat="43.3418" lon="1.25606">
        <ele>203</ele>
        <time>2022-07-08T06:48:05Z</time>
      </trkpt>
      <trkpt lat="43.34157" lon="1.25636">
        <ele>202</ele>
        <time>2022-07-08T06:48:36Z</time>
      </trkpt>
      <trkpt lat="43.34145" lon="1.25648">
        <ele>201</ele>
        <time>2022-07-08T06:48:51Z</time>
      </trkpt>
      <trkpt lat="43.34141" lon="1.2565">
        <ele>201</ele>
        <time>2022-07-08T06:48:54Z</time>
      </trkpt>
      <trkpt lat="43.34133" lon="1.25649">
        <ele>201</ele>
        <time>2022-07-08T06:49:07Z</time>
      </trkpt>
      <trkpt lat="43.34103" lon="1.25675">
        <ele>199</ele>
        <time>2022-07-08T06:49:40Z</time>
      </trkpt>
      <trkpt lat="43.341" lon="1.25679">
        <ele>199</ele>
        <time>2022-07-08T06:49:44Z</time>
      </trkpt>
      <trkpt lat="43.3409" lon="1.25685">
        <ele>198</ele>
        <time>2022-07-08T06:49:56Z</time>
      </trkpt>
      <trkpt lat="43.34086" lon="1.25688">
        <ele>198</ele>
        <time>2022-07-08T06:50:00Z</time>
      </trkpt>
      <trkpt lat="43.34082" lon="1.25689">
        <ele>198</ele>
        <time>2022-07-08T06:50:06Z</time>
      </trkpt>
      <trkpt lat="43.34078" lon="1.25693">
        <ele>198</ele>
        <time>2022-07-08T06:50:11Z</time>
      </trkpt>
      <trkpt lat="43.34054" lon="1.25682">
        <ele>197</ele>
        <time>2022-07-08T06:50:38Z</time>
      </trkpt>
      <trkpt lat="43.34051" lon="1.25687">
        <ele>197</ele>
        <time>2022-07-08T06:50:43Z</time>
      </trkpt>
      <trkpt lat="43.34044" lon="1.25693">
        <ele>197</ele>
        <time>2022-07-08T06:50:52Z</time>
      </trkpt>
      <trkpt lat="43.34044" lon="1.25703">
        <ele>197</ele>
        <time>2022-07-08T06:51:01Z</time>
      </trkpt>
      <trkpt lat="43.34045" lon="1.25709">
        <ele>197</ele>
        <time>2022-07-08T06:51:05Z</time>
      </trkpt>
      <trkpt lat="43.34041" lon="1.2572">
        <ele>197</ele>
        <time>2022-07-08T06:51:17Z</time>
      </trkpt>
      <trkpt lat="43.34036" lon="1.25721">
        <ele>197</ele>
        <time>2022-07-08T06:51:41Z</time>
      </trkpt>
      <trkpt lat="43.34031" lon="1.2573">
        <ele>197</ele>
        <time>2022-07-08T06:53:40Z</time>
      </trkpt>
      <trkpt lat="43.34" lon="1.25761">
        <ele>196</ele>
        <time>2022-07-08T06:54:14Z</time>
      </trkpt>
      <trkpt lat="43.33966" lon="1.25786">
        <ele>195</ele>
        <time>2022-07-08T06:54:47Z</time>
      </trkpt>
      <trkpt lat="43.3396" lon="1.2579">
        <ele>194</ele>
        <time>2022-07-08T06:54:52Z</time>
      </trkpt>
      <trkpt lat="43.33927" lon="1.25817">
        <ele>192</ele>
        <time>2022-07-08T06:55:27Z</time>
      </trkpt>
      <trkpt lat="43.33919" lon="1.25827">
        <ele>192</ele>
        <time>2022-07-08T06:55:36Z</time>
      </trkpt>
      <trkpt lat="43.33917" lon="1.25832">
        <ele>192</ele>
        <time>2022-07-08T06:55:40Z</time>
      </trkpt>
      <trkpt lat="43.33919" lon="1.25839">
        <ele>192</ele>
        <time>2022-07-08T06:56:01Z</time>
      </trkpt>
      <trkpt lat="43.33885" lon="1.25867">
        <ele>191</ele>
        <time>2022-07-08T06:56:35Z</time>
      </trkpt>
      <trkpt lat="43.33877" lon="1.25872">
        <ele>191</ele>
        <time>2022-07-08T06:56:43Z</time>
      </trkpt>
      <trkpt lat="43.33861" lon="1.25884">
        <ele>191</ele>
        <time>2022-07-08T06:56:57Z</time>
      </trkpt>
      <trkpt lat="43.33856" lon="1.25887">
        <ele>190</ele>
        <time>2022-07-08T06:57:01Z</time>
      </trkpt>
      <trkpt lat="43.33849" lon="1.25892">
        <ele>190</ele>
        <time>2022-07-08T06:57:08Z</time>
      </trkpt>
      <trkpt lat="43.33846" lon="1.25896">
        <ele>190</ele>
        <time>2022-07-08T06:57:11Z</time>
      </trkpt>
      <trkpt lat="43.3383" lon="1.25906">
        <ele>190</ele>
        <time>2022-07-08T06:57:28Z</time>
      </trkpt>
      <trkpt lat="43.33827" lon="1.2591">
        <ele>190</ele>
        <time>2022-07-08T06:57:32Z</time>
      </trkpt>
      <trkpt lat="43.33819" lon="1.25919">
        <ele>189</ele>
        <time>2022-07-08T06:57:40Z</time>
      </trkpt>
      <trkpt lat="43.33814" lon="1.25928">
        <ele>189</ele>
        <time>2022-07-08T06:57:48Z</time>
      </trkpt>
      <trkpt lat="43.33804" lon="1.25937">
        <ele>189</ele>
        <time>2022-07-08T06:58:01Z</time>
      </trkpt>
      <trkpt lat="43.33797" lon="1.25942">
        <ele>189</ele>
        <time>2022-07-08T06:58:14Z</time>
      </trkpt>
      <trkpt lat="43.33793" lon="1.25949">
        <ele>189</ele>
        <time>2022-07-08T06:58:56Z</time>
      </trkpt>
      <trkpt lat="43.3379" lon="1.25953">
        <ele>188</ele>
        <time>2022-07-08T06:59:01Z</time>
      </trkpt>
      <trkpt lat="43.33762" lon="1.25974">
        <ele>189</ele>
        <time>2022-07-08T06:59:33Z</time>
      </trkpt>
      <trkpt lat="43.33744" lon="1.25991">
        <ele>190</ele>
        <time>2022-07-08T06:59:58Z</time>
      </trkpt>
      <trkpt lat="43.33732" lon="1.25995">
        <ele>191</ele>
        <time>2022-07-08T07:00:10Z</time>
      </trkpt>
      <trkpt lat="43.33731" lon="1.26007">
        <ele>191</ele>
        <time>2022-07-08T07:00:22Z</time>
      </trkpt>
      <trkpt lat="43.33733" lon="1.26021">
        <ele>192</ele>
        <time>2022-07-08T07:00:32Z</time>
      </trkpt>
      <trkpt lat="43.33737" lon="1.26033">
        <ele>192</ele>
        <time>2022-07-08T07:00:40Z</time>
      </trkpt>
      <trkpt lat="43.33738" lon="1.26039">
        <ele>193</ele>
        <time>2022-07-08T07:00:45Z</time>
      </trkpt>
      <trkpt lat="43.33745" lon="1.26056">
        <ele>193</ele>
        <time>2022-07-08T07:00:58Z</time>
      </trkpt>
      <trkpt lat="43.33748" lon="1.26068">
        <ele>193</ele>
        <time>2022-07-08T07:01:06Z</time>
      </trkpt>
      <trkpt lat="43.33747" lon="1.26074">
        <ele>193</ele>
        <time>2022-07-08T07:01:20Z</time>
      </trkpt>
      <trkpt lat="43.3374" lon="1.2608">
        <ele>194</ele>
        <time>2022-07-08T07:01:36Z</time>
      </trkpt>
      <trkpt lat="43.33745" lon="1.26083">
        <ele>194</ele>
        <time>2022-07-08T07:01:42Z</time>
      </trkpt>
      <trkpt lat="43.33759" lon="1.26114">
        <ele>194</ele>
        <time>2022-07-08T07:02:15Z</time>
      </trkpt>
      <trkpt lat="43.33762" lon="1.26119">
        <ele>194</ele>
        <time>2022-07-08T07:02:19Z</time>
      </trkpt>
      <trkpt lat="43.33769" lon="1.26148">
        <ele>194</ele>
        <time>2022-07-08T07:02:39Z</time>
      </trkpt>
      <trkpt lat="43.33772" lon="1.26154">
        <ele>194</ele>
        <time>2022-07-08T07:02:44Z</time>
      </trkpt>
      <trkpt lat="43.33773" lon="1.2616">
        <ele>194</ele>
        <time>2022-07-08T07:02:49Z</time>
      </trkpt>
      <trkpt lat="43.33774" lon="1.26167">
        <ele>194</ele>
        <time>2022-07-08T07:02:53Z</time>
      </trkpt>
      <trkpt lat="43.33774" lon="1.26174">
        <ele>194</ele>
        <time>2022-07-08T07:02:58Z</time>
      </trkpt>
      <trkpt lat="43.33781" lon="1.26206">
        <ele>194</ele>
        <time>2022-07-08T07:03:20Z</time>
      </trkpt>
      <trkpt lat="43.33782" lon="1.26224">
        <ele>194</ele>
        <time>2022-07-08T07:03:33Z</time>
      </trkpt>
      <trkpt lat="43.3378" lon="1.26231">
        <ele>194</ele>
        <time>2022-07-08T07:03:38Z</time>
      </trkpt>
      <trkpt lat="43.33781" lon="1.26237">
        <ele>194</ele>
        <time>2022-07-08T07:03:42Z</time>
      </trkpt>
      <trkpt lat="43.33775" lon="1.26285">
        <ele>194</ele>
        <time>2022-07-08T07:04:22Z</time>
      </trkpt>
      <trkpt lat="43.33769" lon="1.2633">
        <ele>195</ele>
        <time>2022-07-08T07:04:53Z</time>
      </trkpt>
      <trkpt lat="43.33768" lon="1.26338">
        <ele>195</ele>
        <time>2022-07-08T07:04:59Z</time>
      </trkpt>
      <trkpt lat="43.33766" lon="1.26343">
        <ele>195</ele>
        <time>2022-07-08T07:05:03Z</time>
      </trkpt>
      <trkpt lat="43.33762" lon="1.26353">
        <ele>195</ele>
        <time>2022-07-08T07:05:11Z</time>
      </trkpt>
      <trkpt lat="43.33749" lon="1.26387">
        <ele>196</ele>
        <time>2022-07-08T07:05:39Z</time>
      </trkpt>
      <trkpt lat="43.33737" lon="1.26409">
        <ele>196</ele>
        <time>2022-07-08T07:06:00Z</time>
      </trkpt>
      <trkpt lat="43.33731" lon="1.26423">
        <ele>196</ele>
        <time>2022-07-08T07:06:13Z</time>
      </trkpt>
      <trkpt lat="43.33728" lon="1.26429">
        <ele>197</ele>
        <time>2022-07-08T07:06:20Z</time>
      </trkpt>
      <trkpt lat="43.3372" lon="1.26447">
        <ele>197</ele>
        <time>2022-07-08T07:06:38Z</time>
      </trkpt>
      <trkpt lat="43.33702" lon="1.26478">
        <ele>199</ele>
        <time>2022-07-08T07:07:16Z</time>
      </trkpt>
      <trkpt lat="43.33693" lon="1.26492">
        <ele>200</ele>
        <time>2022-07-08T07:07:31Z</time>
      </trkpt>
      <trkpt lat="43.33691" lon="1.26499">
        <ele>200</ele>
        <time>2022-07-08T07:07:39Z</time>
      </trkpt>
      <trkpt lat="43.33686" lon="1.265">
        <ele>200</ele>
        <time>2022-07-08T07:07:46Z</time>
      </trkpt>
      <trkpt lat="43.33686" lon="1.26508">
        <ele>202</ele>
        <time>2022-07-08T07:09:11Z</time>
      </trkpt>
      <trkpt lat="43.33678" lon="1.2653">
        <ele>204</ele>
        <time>2022-07-08T07:09:34Z</time>
      </trkpt>
      <trkpt lat="43.33674" lon="1.26534">
        <ele>205</ele>
        <time>2022-07-08T07:09:40Z</time>
      </trkpt>
      <trkpt lat="43.33674" lon="1.2654">
        <ele>205</ele>
        <time>2022-07-08T07:09:46Z</time>
      </trkpt>
      <trkpt lat="43.33667" lon="1.26551">
        <ele>207</ele>
        <time>2022-07-08T07:10:01Z</time>
      </trkpt>
      <trkpt lat="43.33666" lon="1.26557">
        <ele>208</ele>
        <time>2022-07-08T07:10:07Z</time>
      </trkpt>
      <trkpt lat="43.3366" lon="1.26564">
        <ele>209</ele>
        <time>2022-07-08T07:10:19Z</time>
      </trkpt>
      <trkpt lat="43.33656" lon="1.26569">
        <ele>210</ele>
        <time>2022-07-08T07:10:31Z</time>
      </trkpt>
      <trkpt lat="43.3365" lon="1.26582">
        <ele>212</ele>
        <time>2022-07-08T07:10:55Z</time>
      </trkpt>
      <trkpt lat="43.33641" lon="1.26594">
        <ele>215</ele>
        <time>2022-07-08T07:11:25Z</time>
      </trkpt>
      <trkpt lat="43.33636" lon="1.26601">
        <ele>217</ele>
        <time>2022-07-08T07:11:47Z</time>
      </trkpt>
      <trkpt lat="43.33638" lon="1.26608">
        <ele>218</ele>
        <time>2022-07-08T07:11:59Z</time>
      </trkpt>
      <trkpt lat="43.33626" lon="1.26638">
        <ele>224</ele>
        <time>2022-07-08T07:12:53Z</time>
      </trkpt>
      <trkpt lat="43.3362" lon="1.26642">
        <ele>225</ele>
        <time>2022-07-08T07:13:05Z</time>
      </trkpt>
      <trkpt lat="43.33614" lon="1.26651">
        <ele>228</ele>
        <time>2022-07-08T07:13:35Z</time>
      </trkpt>
      <trkpt lat="43.33605" lon="1.26664">
        <ele>231</ele>
        <time>2022-07-08T07:14:05Z</time>
      </trkpt>
      <trkpt lat="43.33596" lon="1.2667">
        <ele>233</ele>
        <time>2022-07-08T07:14:25Z</time>
      </trkpt>
      <trkpt lat="43.33593" lon="1.26679">
        <ele>235</ele>
        <time>2022-07-08T07:15:55Z</time>
      </trkpt>
      <trkpt lat="43.33587" lon="1.26679">
        <ele>236</ele>
        <time>2022-07-08T07:16:37Z</time>
      </trkpt>
      <trkpt lat="43.33583" lon="1.26682">
        <ele>237</ele>
        <time>2022-07-08T07:18:36Z</time>
      </trkpt>
      <trkpt lat="43.33579" lon="1.26687">
        <ele>238</ele>
        <time>2022-07-08T07:19:23Z</time>
      </trkpt>
      <trkpt lat="43.33572" lon="1.26697">
        <ele>238</ele>
        <time>2022-07-08T07:19:34Z</time>
      </trkpt>
      <trkpt lat="43.33564" lon="1.26703">
        <ele>237</ele>
        <time>2022-07-08T07:19:44Z</time>
      </trkpt>
      <trkpt lat="43.33561" lon="1.2671">
        <ele>237</ele>
        <time>2022-07-08T07:19:50Z</time>
      </trkpt>
      <trkpt lat="43.33551" lon="1.2672">
        <ele>236</ele>
        <time>2022-07-08T07:20:02Z</time>
      </trkpt>
      <trkpt lat="43.33529" lon="1.26738">
        <ele>235</ele>
        <time>2022-07-08T07:20:30Z</time>
      </trkpt>
      <trkpt lat="43.33526" lon="1.26742">
        <ele>235</ele>
        <time>2022-07-08T07:20:35Z</time>
      </trkpt>
      <trkpt lat="43.3351" lon="1.26753">
        <ele>235</ele>
        <time>2022-07-08T07:20:55Z</time>
      </trkpt>
      <trkpt lat="43.33504" lon="1.26753">
        <ele>235</ele>
        <time>2022-07-08T07:21:03Z</time>
      </trkpt>
      <trkpt lat="43.335" lon="1.26753">
        <ele>235</ele>
        <time>2022-07-08T07:21:08Z</time>
      </trkpt>
      <trkpt lat="43.33495" lon="1.26754">
        <ele>236</ele>
        <time>2022-07-08T07:21:14Z</time>
      </trkpt>
      <trkpt lat="43.3347" lon="1.26768">
        <ele>237</ele>
        <time>2022-07-08T07:21:49Z</time>
      </trkpt>
      <trkpt lat="43.33463" lon="1.26774">
        <ele>237</ele>
        <time>2022-07-08T07:22:00Z</time>
      </trkpt>
      <trkpt lat="43.33441" lon="1.26784">
        <ele>239</ele>
        <time>2022-07-08T07:22:32Z</time>
      </trkpt>
      <trkpt lat="43.33437" lon="1.26785">
        <ele>239</ele>
        <time>2022-07-08T07:22:38Z</time>
      </trkpt>
      <trkpt lat="43.3343" lon="1.26788">
        <ele>240</ele>
        <time>2022-07-08T07:22:49Z</time>
      </trkpt>
      <trkpt lat="43.33416" lon="1.26793">
        <ele>241</ele>
        <time>2022-07-08T07:23:10Z</time>
      </trkpt>
      <trkpt lat="43.3341" lon="1.26794">
        <ele>241</ele>
        <time>2022-07-08T07:23:28Z</time>
      </trkpt>
      <trkpt lat="43.334" lon="1.26798">
        <ele>242</ele>
        <time>2022-07-08T07:23:44Z</time>
      </trkpt>
      <trkpt lat="43.33397" lon="1.26791">
        <ele>242</ele>
        <time>2022-07-08T07:24:43Z</time>
      </trkpt>
      <trkpt lat="43.33395" lon="1.26786">
        <ele>242</ele>
        <time>2022-07-08T07:24:47Z</time>
      </trkpt>
      <trkpt lat="43.33392" lon="1.2678">
        <ele>242</ele>
        <time>2022-07-08T07:24:55Z</time>
      </trkpt>
      <trkpt lat="43.33385" lon="1.26773">
        <ele>243</ele>
        <time>2022-07-08T07:25:08Z</time>
      </trkpt>
      <trkpt lat="43.33383" lon="1.26769">
        <ele>244</ele>
        <time>2022-07-08T07:25:13Z</time>
      </trkpt>
      <trkpt lat="43.33379" lon="1.26765">
        <ele>244</ele>
        <time>2022-07-08T07:25:18Z</time>
      </trkpt>
      <trkpt lat="43.33378" lon="1.2676">
        <ele>244</ele>
        <time>2022-07-08T07:25:24Z</time>
      </trkpt>
      <trkpt lat="43.33372" lon="1.26751">
        <ele>244</ele>
        <time>2022-07-08T07:25:38Z</time>
      </trkpt>
      <trkpt lat="43.3337" lon="1.26745">
        <ele>244</ele>
        <time>2022-07-08T07:25:56Z</time>
      </trkpt>
      <trkpt lat="43.33365" lon="1.26747">
        <ele>244</ele>
        <time>2022-07-08T07:26:19Z</time>
      </trkpt>
      <trkpt lat="43.33362" lon="1.26744">
        <ele>244</ele>
        <time>2022-07-08T07:27:24Z</time>
      </trkpt>
      <trkpt lat="43.33358" lon="1.26741">
        <ele>244</ele>
        <time>2022-07-08T07:27:30Z</time>
      </trkpt>
      <trkpt lat="43.33353" lon="1.2674">
        <ele>244</ele>
        <time>2022-07-08T07:27:37Z</time>
      </trkpt>
      <trkpt lat="43.33348" lon="1.26736">
        <ele>245</ele>
        <time>2022-07-08T07:27:45Z</time>
      </trkpt>
      <trkpt lat="43.33342" lon="1.26731">
        <ele>245</ele>
        <time>2022-07-08T07:27:53Z</time>
      </trkpt>
      <trkpt lat="43.33331" lon="1.26728">
        <ele>246</ele>
        <time>2022-07-08T07:28:07Z</time>
      </trkpt>
      <trkpt lat="43.33313" lon="1.2672">
        <ele>249</ele>
        <time>2022-07-08T07:28:42Z</time>
      </trkpt>
      <trkpt lat="43.33293" lon="1.26711">
        <ele>251</ele>
        <time>2022-07-08T07:29:13Z</time>
      </trkpt>
      <trkpt lat="43.33287" lon="1.26708">
        <ele>252</ele>
        <time>2022-07-08T07:29:25Z</time>
      </trkpt>
      <trkpt lat="43.33283" lon="1.26706">
        <ele>253</ele>
        <time>2022-07-08T07:29:37Z</time>
      </trkpt>
      <trkpt lat="43.3328" lon="1.26702">
        <ele>253</ele>
        <time>2022-07-08T07:29:49Z</time>
      </trkpt>
      <trkpt lat="43.33266" lon="1.26695">
        <ele>256</ele>
        <time>2022-07-08T07:30:13Z</time>
      </trkpt>
      <trkpt lat="43.33259" lon="1.26689">
        <ele>257</ele>
        <time>2022-07-08T07:30:43Z</time>
      </trkpt>
      <trkpt lat="43.33237" lon="1.26674">
        <ele>261</ele>
        <time>2022-07-08T07:31:25Z</time>
      </trkpt>
      <trkpt lat="43.33232" lon="1.26669">
        <ele>262</ele>
        <time>2022-07-08T07:31:37Z</time>
      </trkpt>
      <trkpt lat="43.33215" lon="1.2666">
        <ele>266</ele>
        <time>2022-07-08T07:32:19Z</time>
      </trkpt>
      <trkpt lat="43.33211" lon="1.26656">
        <ele>267</ele>
        <time>2022-07-08T07:32:31Z</time>
      </trkpt>
      <trkpt lat="43.33207" lon="1.26653">
        <ele>268</ele>
        <time>2022-07-08T07:32:42Z</time>
      </trkpt>
      <trkpt lat="43.33202" lon="1.26652">
        <ele>269</ele>
        <time>2022-07-08T07:33:04Z</time>
      </trkpt>
      <trkpt lat="43.33186" lon="1.26639">
        <ele>272</ele>
        <time>2022-07-08T07:33:40Z</time>
      </trkpt>
      <trkpt lat="43.33172" lon="1.26628">
        <ele>276</ele>
        <time>2022-07-08T07:34:17Z</time>
      </trkpt>
      <trkpt lat="43.33166" lon="1.26625">
        <ele>277</ele>
        <time>2022-07-08T07:34:29Z</time>
      </trkpt>
      <trkpt lat="43.33161" lon="1.26619">
        <ele>278</ele>
        <time>2022-07-08T07:34:41Z</time>
      </trkpt>
      <trkpt lat="43.33152" lon="1.26613">
        <ele>279</ele>
        <time>2022-07-08T07:35:17Z</time>
      </trkpt>
      <trkpt lat="43.33146" lon="1.26607">
        <ele>279</ele>
        <time>2022-07-08T07:35:29Z</time>
      </trkpt>
      <trkpt lat="43.33134" lon="1.26602">
        <ele>280</ele>
        <time>2022-07-08T07:35:47Z</time>
      </trkpt>
      <trkpt lat="43.33129" lon="1.26597">
        <ele>280</ele>
        <time>2022-07-08T07:35:55Z</time>
      </trkpt>
      <trkpt lat="43.33121" lon="1.26596">
        <ele>280</ele>
        <time>2022-07-08T07:36:06Z</time>
      </trkpt>
      <trkpt lat="43.33118" lon="1.26592">
        <ele>280</ele>
        <time>2022-07-08T07:36:25Z</time>
      </trkpt>
      <trkpt lat="43.33113" lon="1.26595">
        <ele>280</ele>
        <time>2022-07-08T07:37:07Z</time>
      </trkpt>
      <trkpt lat="43.33109" lon="1.26593">
        <ele>280</ele>
        <time>2022-07-08T07:37:31Z</time>
      </trkpt>
      <trkpt lat="43.33105" lon="1.26591">
        <ele>280</ele>
        <time>2022-07-08T07:37:36Z</time>
      </trkpt>
      <trkpt lat="43.33101" lon="1.2659">
        <ele>280</ele>
        <time>2022-07-08T07:37:41Z</time>
      </trkpt>
      <trkpt lat="43.33093" lon="1.26591">
        <ele>280</ele>
        <time>2022-07-08T07:37:50Z</time>
      </trkpt>
      <trkpt lat="43.33062" lon="1.26582">
        <ele>278</ele>
        <time>2022-07-08T07:38:24Z</time>
      </trkpt>
      <trkpt lat="43.33051" lon="1.26578">
        <ele>279</ele>
        <time>2022-07-08T07:38:36Z</time>
      </trkpt>
      <trkpt lat="43.33049" lon="1.26574">
        <ele>279</ele>
        <time>2022-07-08T07:39:10Z</time>
      </trkpt>
      <trkpt lat="43.33045" lon="1.26576">
        <ele>279</ele>
        <time>2022-07-08T07:44:15Z</time>
      </trkpt>
      <trkpt lat="43.33041" lon="1.26575">
        <ele>279</ele>
        <time>2022-07-08T07:44:20Z</time>
      </trkpt>
      <trkpt lat="43.33014" lon="1.26558">
        <ele>281</ele>
        <time>2022-07-08T07:44:56Z</time>
      </trkpt>
      <trkpt lat="43.33" lon="1.26551">
        <ele>281</ele>
        <time>2022-07-08T07:45:14Z</time>
      </trkpt>
      <trkpt lat="43.32978" lon="1.26544">
        <ele>278</ele>
        <time>2022-07-08T07:45:45Z</time>
      </trkpt>
      <trkpt lat="43.32959" lon="1.2654">
        <ele>276</ele>
        <time>2022-07-08T07:46:11Z</time>
      </trkpt>
      <trkpt lat="43.3295" lon="1.26533">
        <ele>274</ele>
        <time>2022-07-08T07:46:25Z</time>
      </trkpt>
      <trkpt lat="43.32943" lon="1.26532">
        <ele>273</ele>
        <time>2022-07-08T07:46:37Z</time>
      </trkpt>
      <trkpt lat="43.32936" lon="1.26531">
        <ele>273</ele>
        <time>2022-07-08T07:46:49Z</time>
      </trkpt>
      <trkpt lat="43.32923" lon="1.26524">
        <ele>270</ele>
        <time>2022-07-08T07:47:12Z</time>
      </trkpt>
      <trkpt lat="43.32917" lon="1.26527">
        <ele>270</ele>
        <time>2022-07-08T07:47:53Z</time>
      </trkpt>
      <trkpt lat="43.3291" lon="1.26531">
        <ele>269</ele>
        <time>2022-07-08T07:48:05Z</time>
      </trkpt>
      <trkpt lat="43.32896" lon="1.26533">
        <ele>267</ele>
        <time>2022-07-08T07:48:23Z</time>
      </trkpt>
      <trkpt lat="43.32891" lon="1.26537">
        <ele>267</ele>
        <time>2022-07-08T07:48:28Z</time>
      </trkpt>
      <trkpt lat="43.32886" lon="1.26539">
        <ele>267</ele>
        <time>2022-07-08T07:48:33Z</time>
      </trkpt>
      <trkpt lat="43.32872" lon="1.26549">
        <ele>266</ele>
        <time>2022-07-08T07:48:53Z</time>
      </trkpt>
      <trkpt lat="43.32861" lon="1.26551">
        <ele>265</ele>
        <time>2022-07-08T07:49:03Z</time>
      </trkpt>
      <trkpt lat="43.32855" lon="1.26549">
        <ele>265</ele>
        <time>2022-07-08T07:49:08Z</time>
      </trkpt>
      <trkpt lat="43.32845" lon="1.26544">
        <ele>264</ele>
        <time>2022-07-08T07:49:22Z</time>
      </trkpt>
      <trkpt lat="43.32831" lon="1.26544">
        <ele>264</ele>
        <time>2022-07-08T07:49:36Z</time>
      </trkpt>
      <trkpt lat="43.32826" lon="1.26545">
        <ele>264</ele>
        <time>2022-07-08T07:49:44Z</time>
      </trkpt>
      <trkpt lat="43.32827" lon="1.26556">
        <ele>264</ele>
        <time>2022-07-08T07:49:56Z</time>
      </trkpt>
      <trkpt lat="43.32827" lon="1.26572">
        <ele>265</ele>
        <time>2022-07-08T07:50:11Z</time>
      </trkpt>
      <trkpt lat="43.32824" lon="1.26583">
        <ele>266</ele>
        <time>2022-07-08T07:50:23Z</time>
      </trkpt>
      <trkpt lat="43.32822" lon="1.26597">
        <ele>267</ele>
        <time>2022-07-08T07:50:37Z</time>
      </trkpt>
      <trkpt lat="43.32808" lon="1.26599">
        <ele>268</ele>
        <time>2022-07-08T07:51:12Z</time>
      </trkpt>
      <trkpt lat="43.328" lon="1.26595">
        <ele>269</ele>
        <time>2022-07-08T07:51:24Z</time>
      </trkpt>
      <trkpt lat="43.32788" lon="1.2659">
        <ele>269</ele>
        <time>2022-07-08T07:51:38Z</time>
      </trkpt>
      <trkpt lat="43.32766" lon="1.26575">
        <ele>271</ele>
        <time>2022-07-08T07:52:09Z</time>
      </trkpt>
      <trkpt lat="43.32755" lon="1.26571">
        <ele>272</ele>
        <time>2022-07-08T07:52:26Z</time>
      </trkpt>
      <trkpt lat="43.32746" lon="1.26567">
        <ele>273</ele>
        <time>2022-07-08T07:52:38Z</time>
      </trkpt>
      <trkpt lat="43.32742" lon="1.26567">
        <ele>273</ele>
        <time>2022-07-08T07:52:44Z</time>
      </trkpt>
      <trkpt lat="43.32738" lon="1.26562">
        <ele>274</ele>
        <time>2022-07-08T07:52:49Z</time>
      </trkpt>
      <trkpt lat="43.32735" lon="1.26554">
        <ele>274</ele>
        <time>2022-07-08T07:52:59Z</time>
      </trkpt>
      <trkpt lat="43.32724" lon="1.26529">
        <ele>274</ele>
        <time>2022-07-08T07:53:32Z</time>
      </trkpt>
      <trkpt lat="43.32718" lon="1.26511">
        <ele>274</ele>
        <time>2022-07-08T07:53:46Z</time>
      </trkpt>
      <trkpt lat="43.32714" lon="1.26505">
        <ele>274</ele>
        <time>2022-07-08T07:53:52Z</time>
      </trkpt>
      <trkpt lat="43.32711" lon="1.26498">
        <ele>274</ele>
        <time>2022-07-08T07:53:57Z</time>
      </trkpt>
      <trkpt lat="43.32708" lon="1.26494">
        <ele>274</ele>
        <time>2022-07-08T07:54:03Z</time>
      </trkpt>
      <trkpt lat="43.32694" lon="1.26457">
        <ele>273</ele>
        <time>2022-07-08T07:54:35Z</time>
      </trkpt>
      <trkpt lat="43.3269" lon="1.26456">
        <ele>273</ele>
        <time>2022-07-08T07:54:49Z</time>
      </trkpt>
      <trkpt lat="43.32688" lon="1.2645">
        <ele>273</ele>
        <time>2022-07-08T07:54:54Z</time>
      </trkpt>
      <trkpt lat="43.32685" lon="1.26446">
        <ele>273</ele>
        <time>2022-07-08T07:55:18Z</time>
      </trkpt>
      <trkpt lat="43.32684" lon="1.26441">
        <ele>273</ele>
        <time>2022-07-08T07:55:22Z</time>
      </trkpt>
      <trkpt lat="43.32669" lon="1.26416">
        <ele>273</ele>
        <time>2022-07-08T07:55:47Z</time>
      </trkpt>
      <trkpt lat="43.32668" lon="1.26411">
        <ele>272</ele>
        <time>2022-07-08T07:55:57Z</time>
      </trkpt>
      <trkpt lat="43.32664" lon="1.26405">
        <ele>273</ele>
        <time>2022-07-08T07:56:15Z</time>
      </trkpt>
      <trkpt lat="43.32661" lon="1.26401">
        <ele>273</ele>
        <time>2022-07-08T07:56:19Z</time>
      </trkpt>
      <trkpt lat="43.3266" lon="1.26396">
        <ele>272</ele>
        <time>2022-07-08T07:56:23Z</time>
      </trkpt>
      <trkpt lat="43.32652" lon="1.26385">
        <ele>272</ele>
        <time>2022-07-08T07:56:34Z</time>
      </trkpt>
      <trkpt lat="43.32651" lon="1.2638">
        <ele>272</ele>
        <time>2022-07-08T07:56:38Z</time>
      </trkpt>
      <trkpt lat="43.32648" lon="1.26375">
        <ele>271</ele>
        <time>2022-07-08T07:56:43Z</time>
      </trkpt>
      <trkpt lat="43.32647" lon="1.26361">
        <ele>271</ele>
        <time>2022-07-08T07:56:58Z</time>
      </trkpt>
      <trkpt lat="43.32644" lon="1.26353">
        <ele>271</ele>
        <time>2022-07-08T07:57:07Z</time>
      </trkpt>
      <trkpt lat="43.3264" lon="1.26351">
        <ele>271</ele>
        <time>2022-07-08T08:16:22Z</time>
      </trkpt>
      <trkpt lat="43.32636" lon="1.2635">
        <ele>270</ele>
        <time>2022-07-08T08:16:28Z</time>
      </trkpt>
      <trkpt lat="43.32633" lon="1.26343">
        <ele>270</ele>
        <time>2022-07-08T08:16:35Z</time>
      </trkpt>
      <trkpt lat="43.32632" lon="1.26338">
        <ele>270</ele>
        <time>2022-07-08T08:16:39Z</time>
      </trkpt>
      <trkpt lat="43.32628" lon="1.2633">
        <ele>270</ele>
        <time>2022-07-08T08:16:46Z</time>
      </trkpt>
      <trkpt lat="43.32626" lon="1.26326">
        <ele>270</ele>
        <time>2022-07-08T08:16:55Z</time>
      </trkpt>
      <trkpt lat="43.3262" lon="1.26317">
        <ele>270</ele>
        <time>2022-07-08T08:17:03Z</time>
      </trkpt>
      <trkpt lat="43.32613" lon="1.26303">
        <ele>269</ele>
        <time>2022-07-08T08:17:15Z</time>
      </trkpt>
      <trkpt lat="43.32592" lon="1.2627">
        <ele>269</ele>
        <time>2022-07-08T08:17:47Z</time>
      </trkpt>
      <trkpt lat="43.32567" lon="1.26244">
        <ele>271</ele>
        <time>2022-07-08T08:18:21Z</time>
      </trkpt>
      <trkpt lat="43.32546" lon="1.26227">
        <ele>274</ele>
        <time>2022-07-08T08:18:56Z</time>
      </trkpt>
      <trkpt lat="43.32542" lon="1.26224">
        <ele>274</ele>
        <time>2022-07-08T08:19:02Z</time>
      </trkpt>
      <trkpt lat="43.32534" lon="1.26221">
        <ele>275</ele>
        <time>2022-07-08T08:19:14Z</time>
      </trkpt>
      <trkpt lat="43.32508" lon="1.26206">
        <ele>277</ele>
        <time>2022-07-08T08:19:46Z</time>
      </trkpt>
      <trkpt lat="43.32487" lon="1.26192">
        <ele>275</ele>
        <time>2022-07-08T08:20:11Z</time>
      </trkpt>
      <trkpt lat="43.32461" lon="1.26176">
        <ele>272</ele>
        <time>2022-07-08T08:20:44Z</time>
      </trkpt>
      <trkpt lat="43.32456" lon="1.26173">
        <ele>271</ele>
        <time>2022-07-08T08:20:50Z</time>
      </trkpt>
      <trkpt lat="43.32452" lon="1.26172">
        <ele>271</ele>
        <time>2022-07-08T08:20:54Z</time>
      </trkpt>
      <trkpt lat="43.32445" lon="1.26165">
        <ele>270</ele>
        <time>2022-07-08T08:21:02Z</time>
      </trkpt>
      <trkpt lat="43.32442" lon="1.26164">
        <ele>270</ele>
        <time>2022-07-08T08:21:06Z</time>
      </trkpt>
      <trkpt lat="43.32424" lon="1.26155">
        <ele>268</ele>
        <time>2022-07-08T08:21:25Z</time>
      </trkpt>
      <trkpt lat="43.3242" lon="1.26153">
        <ele>268</ele>
        <time>2022-07-08T08:21:28Z</time>
      </trkpt>
      <trkpt lat="43.32409" lon="1.26146">
        <ele>268</ele>
        <time>2022-07-08T08:21:39Z</time>
      </trkpt>
      <trkpt lat="43.32405" lon="1.26146">
        <ele>268</ele>
        <time>2022-07-08T08:21:43Z</time>
      </trkpt>
      <trkpt lat="43.32401" lon="1.26143">
        <ele>268</ele>
        <time>2022-07-08T08:21:47Z</time>
      </trkpt>
      <trkpt lat="43.32395" lon="1.26142">
        <ele>268</ele>
        <time>2022-07-08T08:21:53Z</time>
      </trkpt>
      <trkpt lat="43.32385" lon="1.2614">
        <ele>269</ele>
        <time>2022-07-08T08:22:05Z</time>
      </trkpt>
      <trkpt lat="43.32366" lon="1.2613">
        <ele>270</ele>
        <time>2022-07-08T08:22:30Z</time>
      </trkpt>
      <trkpt lat="43.32347" lon="1.26124">
        <ele>272</ele>
        <time>2022-07-08T08:22:55Z</time>
      </trkpt>
      <trkpt lat="43.32331" lon="1.26123">
        <ele>273</ele>
        <time>2022-07-08T08:23:19Z</time>
      </trkpt>
      <trkpt lat="43.32311" lon="1.26114">
        <ele>276</ele>
        <time>2022-07-08T08:23:55Z</time>
      </trkpt>
      <trkpt lat="43.32303" lon="1.26104">
        <ele>278</ele>
        <time>2022-07-08T08:24:10Z</time>
      </trkpt>
      <trkpt lat="43.32299" lon="1.26093">
        <ele>279</ele>
        <time>2022-07-08T08:24:22Z</time>
      </trkpt>
      <trkpt lat="43.32297" lon="1.26084">
        <ele>281</ele>
        <time>2022-07-08T08:24:34Z</time>
      </trkpt>
      <trkpt lat="43.32294" lon="1.26074">
        <ele>281</ele>
        <time>2022-07-08T08:24:45Z</time>
      </trkpt>
      <trkpt lat="43.32273" lon="1.26045">
        <ele>283</ele>
        <time>2022-07-08T08:25:21Z</time>
      </trkpt>
      <trkpt lat="43.32259" lon="1.26014">
        <ele>284</ele>
        <time>2022-07-08T08:25:49Z</time>
      </trkpt>
      <trkpt lat="43.32259" lon="1.26007">
        <ele>284</ele>
        <time>2022-07-08T08:25:59Z</time>
      </trkpt>
      <trkpt lat="43.32259" lon="1.26001">
        <ele>284</ele>
        <time>2022-07-08T08:26:02Z</time>
      </trkpt>
      <trkpt lat="43.32261" lon="1.25996">
        <ele>284</ele>
        <time>2022-07-08T08:26:05Z</time>
      </trkpt>
      <trkpt lat="43.32253" lon="1.25998">
        <ele>284</ele>
        <time>2022-07-08T08:26:18Z</time>
      </trkpt>
      <trkpt lat="43.3225" lon="1.25994">
        <ele>285</ele>
        <time>2022-07-08T08:26:26Z</time>
      </trkpt>
      <trkpt lat="43.32244" lon="1.25998">
        <ele>285</ele>
        <time>2022-07-08T08:27:03Z</time>
      </trkpt>
      <trkpt lat="43.32237" lon="1.25999">
        <ele>285</ele>
        <time>2022-07-08T08:27:10Z</time>
      </trkpt>
      <trkpt lat="43.32233" lon="1.25998">
        <ele>285</ele>
        <time>2022-07-08T08:27:13Z</time>
      </trkpt>
      <trkpt lat="43.32225" lon="1.26001">
        <ele>285</ele>
        <time>2022-07-08T08:27:21Z</time>
      </trkpt>
      <trkpt lat="43.32218" lon="1.26001">
        <ele>284</ele>
        <time>2022-07-08T08:27:41Z</time>
      </trkpt>
      <trkpt lat="43.32214" lon="1.26005">
        <ele>284</ele>
        <time>2022-07-08T08:27:47Z</time>
      </trkpt>
      <trkpt lat="43.32204" lon="1.26007">
        <ele>283</ele>
        <time>2022-07-08T08:28:00Z</time>
      </trkpt>
      <trkpt lat="43.32176" lon="1.26017">
        <ele>283</ele>
        <time>2022-07-08T08:28:25Z</time>
      </trkpt>
      <trkpt lat="43.32171" lon="1.26017">
        <ele>283</ele>
        <time>2022-07-08T08:28:29Z</time>
      </trkpt>
      <trkpt lat="43.32157" lon="1.26023">
        <ele>283</ele>
        <time>2022-07-08T08:28:42Z</time>
      </trkpt>
      <trkpt lat="43.32143" lon="1.26025">
        <ele>284</ele>
        <time>2022-07-08T08:28:55Z</time>
      </trkpt>
      <trkpt lat="43.3213" lon="1.26023">
        <ele>284</ele>
        <time>2022-07-08T08:29:08Z</time>
      </trkpt>
      <trkpt lat="43.32121" lon="1.26023">
        <ele>284</ele>
        <time>2022-07-08T08:29:17Z</time>
      </trkpt>
      <trkpt lat="43.32091" lon="1.26027">
        <ele>285</ele>
        <time>2022-07-08T08:29:46Z</time>
      </trkpt>
      <trkpt lat="43.32086" lon="1.26026">
        <ele>285</ele>
        <time>2022-07-08T08:29:50Z</time>
      </trkpt>
      <trkpt lat="43.32052" lon="1.26029">
        <ele>287</ele>
        <time>2022-07-08T08:30:23Z</time>
      </trkpt>
      <trkpt lat="43.32037" lon="1.26032">
        <ele>287</ele>
        <time>2022-07-08T08:30:39Z</time>
      </trkpt>
      <trkpt lat="43.32012" lon="1.26031">
        <ele>290</ele>
        <time>2022-07-08T08:31:10Z</time>
      </trkpt>
      <trkpt lat="43.32001" lon="1.26036">
        <ele>292</ele>
        <time>2022-07-08T08:31:26Z</time>
      </trkpt>
      <trkpt lat="43.31986" lon="1.26033">
        <ele>293</ele>
        <time>2022-07-08T08:31:44Z</time>
      </trkpt>
      <trkpt lat="43.31979" lon="1.26033">
        <ele>294</ele>
        <time>2022-07-08T08:31:53Z</time>
      </trkpt>
      <trkpt lat="43.31975" lon="1.2603">
        <ele>293</ele>
        <time>2022-07-08T08:31:58Z</time>
      </trkpt>
      <trkpt lat="43.3197" lon="1.26024">
        <ele>293</ele>
        <time>2022-07-08T08:32:06Z</time>
      </trkpt>
      <trkpt lat="43.31974" lon="1.25984">
        <ele>289</ele>
        <time>2022-07-08T08:32:40Z</time>
      </trkpt>
      <trkpt lat="43.31975" lon="1.25947">
        <ele>286</ele>
        <time>2022-07-08T08:33:07Z</time>
      </trkpt>
      <trkpt lat="43.31972" lon="1.25941">
        <ele>286</ele>
        <time>2022-07-08T08:33:13Z</time>
      </trkpt>
      <trkpt lat="43.31971" lon="1.25934">
        <ele>285</ele>
        <time>2022-07-08T08:33:18Z</time>
      </trkpt>
      <trkpt lat="43.31966" lon="1.25913">
        <ele>284</ele>
        <time>2022-07-08T08:33:35Z</time>
      </trkpt>
      <trkpt lat="43.3196" lon="1.25905">
        <ele>283</ele>
        <time>2022-07-08T08:33:43Z</time>
      </trkpt>
      <trkpt lat="43.31946" lon="1.25874">
        <ele>279</ele>
        <time>2022-07-08T08:34:13Z</time>
      </trkpt>
      <trkpt lat="43.31936" lon="1.25857">
        <ele>278</ele>
        <time>2022-07-08T08:34:28Z</time>
      </trkpt>
      <trkpt lat="43.3193" lon="1.25843">
        <ele>276</ele>
        <time>2022-07-08T08:34:38Z</time>
      </trkpt>
      <trkpt lat="43.31926" lon="1.25833">
        <ele>276</ele>
        <time>2022-07-08T08:34:48Z</time>
      </trkpt>
      <trkpt lat="43.31924" lon="1.25827">
        <ele>275</ele>
        <time>2022-07-08T08:34:52Z</time>
      </trkpt>
      <trkpt lat="43.31919" lon="1.25822">
        <ele>274</ele>
        <time>2022-07-08T08:34:58Z</time>
      </trkpt>
      <trkpt lat="43.31894" lon="1.25791">
        <ele>272</ele>
        <time>2022-07-08T08:35:30Z</time>
      </trkpt>
      <trkpt lat="43.31874" lon="1.25761">
        <ele>270</ele>
        <time>2022-07-08T08:35:58Z</time>
      </trkpt>
      <trkpt lat="43.31871" lon="1.25751">
        <ele>269</ele>
        <time>2022-07-08T08:36:07Z</time>
      </trkpt>
      <trkpt lat="43.31869" lon="1.25743">
        <ele>269</ele>
        <time>2022-07-08T08:36:12Z</time>
      </trkpt>
      <trkpt lat="43.31866" lon="1.25735">
        <ele>269</ele>
        <time>2022-07-08T08:36:52Z</time>
      </trkpt>
      <trkpt lat="43.31865" lon="1.25727">
        <ele>268</ele>
        <time>2022-07-08T08:37:06Z</time>
      </trkpt>
      <trkpt lat="43.31864" lon="1.2572">
        <ele>268</ele>
        <time>2022-07-08T08:37:11Z</time>
      </trkpt>
      <trkpt lat="43.31861" lon="1.25715">
        <ele>268</ele>
        <time>2022-07-08T08:37:16Z</time>
      </trkpt>
      <trkpt lat="43.31856" lon="1.25696">
        <ele>267</ele>
        <time>2022-07-08T08:37:30Z</time>
      </trkpt>
      <trkpt lat="43.31854" lon="1.2569">
        <ele>267</ele>
        <time>2022-07-08T08:37:34Z</time>
      </trkpt>
      <trkpt lat="43.31854" lon="1.25678">
        <ele>266</ele>
        <time>2022-07-08T08:37:42Z</time>
      </trkpt>
      <trkpt lat="43.31848" lon="1.25659">
        <ele>265</ele>
        <time>2022-07-08T08:37:57Z</time>
      </trkpt>
      <trkpt lat="43.31843" lon="1.25618">
        <ele>263</ele>
        <time>2022-07-08T08:38:24Z</time>
      </trkpt>
      <trkpt lat="43.31834" lon="1.25572">
        <ele>260</ele>
        <time>2022-07-08T08:38:55Z</time>
      </trkpt>
      <trkpt lat="43.3183" lon="1.25553">
        <ele>259</ele>
        <time>2022-07-08T08:39:08Z</time>
      </trkpt>
      <trkpt lat="43.3183" lon="1.25547">
        <ele>259</ele>
        <time>2022-07-08T08:39:12Z</time>
      </trkpt>
      <trkpt lat="43.31821" lon="1.25507">
        <ele>257</ele>
        <time>2022-07-08T08:39:39Z</time>
      </trkpt>
      <trkpt lat="43.31814" lon="1.25495">
        <ele>257</ele>
        <time>2022-07-08T08:39:49Z</time>
      </trkpt>
      <trkpt lat="43.31813" lon="1.25489">
        <ele>257</ele>
        <time>2022-07-08T08:39:53Z</time>
      </trkpt>
      <trkpt lat="43.31799" lon="1.25444">
        <ele>255</ele>
        <time>2022-07-08T08:40:25Z</time>
      </trkpt>
      <trkpt lat="43.31792" lon="1.25427">
        <ele>254</ele>
        <time>2022-07-08T08:40:37Z</time>
      </trkpt>
      <trkpt lat="43.31782" lon="1.25393">
        <ele>254</ele>
        <time>2022-07-08T08:41:03Z</time>
      </trkpt>
      <trkpt lat="43.31781" lon="1.25383">
        <ele>253</ele>
        <time>2022-07-08T08:41:10Z</time>
      </trkpt>
      <trkpt lat="43.3178" lon="1.25377">
        <ele>253</ele>
        <time>2022-07-08T08:41:14Z</time>
      </trkpt>
      <trkpt lat="43.3178" lon="1.2537">
        <ele>253</ele>
        <time>2022-07-08T08:41:19Z</time>
      </trkpt>
      <trkpt lat="43.31779" lon="1.25363">
        <ele>253</ele>
        <time>2022-07-08T08:41:23Z</time>
      </trkpt>
      <trkpt lat="43.31771" lon="1.25338">
        <ele>252</ele>
        <time>2022-07-08T08:41:40Z</time>
      </trkpt>
      <trkpt lat="43.31771" lon="1.25332">
        <ele>252</ele>
        <time>2022-07-08T08:41:44Z</time>
      </trkpt>
      <trkpt lat="43.31771" lon="1.25325">
        <ele>252</ele>
        <time>2022-07-08T08:41:49Z</time>
      </trkpt>
      <trkpt lat="43.31768" lon="1.2532">
        <ele>251</ele>
        <time>2022-07-08T08:41:53Z</time>
      </trkpt>
      <trkpt lat="43.31762" lon="1.25294">
        <ele>251</ele>
        <time>2022-07-08T08:42:12Z</time>
      </trkpt>
      <trkpt lat="43.31748" lon="1.25252">
        <ele>249</ele>
        <time>2022-07-08T08:42:41Z</time>
      </trkpt>
      <trkpt lat="43.31747" lon="1.25246">
        <ele>249</ele>
        <time>2022-07-08T08:42:45Z</time>
      </trkpt>
      <trkpt lat="43.31739" lon="1.25228">
        <ele>249</ele>
        <time>2022-07-08T08:42:59Z</time>
      </trkpt>
      <trkpt lat="43.31731" lon="1.2518">
        <ele>247</ele>
        <time>2022-07-08T08:43:33Z</time>
      </trkpt>
      <trkpt lat="43.3173" lon="1.25173">
        <ele>247</ele>
        <time>2022-07-08T08:43:37Z</time>
      </trkpt>
      <trkpt lat="43.31732" lon="1.25167">
        <ele>247</ele>
        <time>2022-07-08T08:43:44Z</time>
      </trkpt>
      <trkpt lat="43.31728" lon="1.2515">
        <ele>246</ele>
        <time>2022-07-08T08:43:58Z</time>
      </trkpt>
      <trkpt lat="43.31717" lon="1.25122">
        <ele>244</ele>
        <time>2022-07-08T08:44:22Z</time>
      </trkpt>
      <trkpt lat="43.31712" lon="1.25114">
        <ele>243</ele>
        <time>2022-07-08T08:44:30Z</time>
      </trkpt>
      <trkpt lat="43.3171" lon="1.25106">
        <ele>242</ele>
        <time>2022-07-08T08:44:46Z</time>
      </trkpt>
      <trkpt lat="43.31703" lon="1.25094">
        <ele>242</ele>
        <time>2022-07-08T08:45:47Z</time>
      </trkpt>
      <trkpt lat="43.31684" lon="1.25061">
        <ele>238</ele>
        <time>2022-07-08T08:46:20Z</time>
      </trkpt>
      <trkpt lat="43.31667" lon="1.2503">
        <ele>234</ele>
        <time>2022-07-08T08:46:46Z</time>
      </trkpt>
      <trkpt lat="43.3166" lon="1.25006">
        <ele>232</ele>
        <time>2022-07-08T08:47:04Z</time>
      </trkpt>
      <trkpt lat="43.31659" lon="1.24988">
        <ele>231</ele>
        <time>2022-07-08T08:47:16Z</time>
      </trkpt>
      <trkpt lat="43.3166" lon="1.24979">
        <ele>231</ele>
        <time>2022-07-08T08:47:23Z</time>
      </trkpt>
      <trkpt lat="43.3166" lon="1.24973">
        <ele>230</ele>
        <time>2022-07-08T08:47:27Z</time>
      </trkpt>
      <trkpt lat="43.31664" lon="1.24944">
        <ele>227</ele>
        <time>2022-07-08T08:47:47Z</time>
      </trkpt>
      <trkpt lat="43.31664" lon="1.24937">
        <ele>227</ele>
        <time>2022-07-08T08:47:52Z</time>
      </trkpt>
      <trkpt lat="43.31666" lon="1.2493">
        <ele>226</ele>
        <time>2022-07-08T08:47:58Z</time>
      </trkpt>
      <trkpt lat="43.31664" lon="1.24921">
        <ele>225</ele>
        <time>2022-07-08T08:48:07Z</time>
      </trkpt>
      <trkpt lat="43.31656" lon="1.24914">
        <ele>224</ele>
        <time>2022-07-08T08:48:17Z</time>
      </trkpt>
      <trkpt lat="43.31648" lon="1.24912">
        <ele>223</ele>
        <time>2022-07-08T08:48:25Z</time>
      </trkpt>
      <trkpt lat="43.31644" lon="1.24909">
        <ele>222</ele>
        <time>2022-07-08T08:48:30Z</time>
      </trkpt>
      <trkpt lat="43.31639" lon="1.24909">
        <ele>222</ele>
        <time>2022-07-08T08:48:34Z</time>
      </trkpt>
      <trkpt lat="43.3163" lon="1.2491">
        <ele>220</ele>
        <time>2022-07-08T08:48:43Z</time>
      </trkpt>
      <trkpt lat="43.31624" lon="1.24907">
        <ele>220</ele>
        <time>2022-07-08T08:48:50Z</time>
      </trkpt>
      <trkpt lat="43.31611" lon="1.24907">
        <ele>218</ele>
        <time>2022-07-08T08:49:03Z</time>
      </trkpt>
      <trkpt lat="43.31606" lon="1.24904">
        <ele>218</ele>
        <time>2022-07-08T08:49:10Z</time>
      </trkpt>
      <trkpt lat="43.31598" lon="1.24888">
        <ele>217</ele>
        <time>2022-07-08T08:49:23Z</time>
      </trkpt>
      <trkpt lat="43.31596" lon="1.24867">
        <ele>215</ele>
        <time>2022-07-08T08:49:37Z</time>
      </trkpt>
      <trkpt lat="43.31597" lon="1.24861">
        <ele>215</ele>
        <time>2022-07-08T08:49:42Z</time>
      </trkpt>
      <trkpt lat="43.31602" lon="1.24834">
        <ele>214</ele>
        <time>2022-07-08T08:49:58Z</time>
      </trkpt>
      <trkpt lat="43.31618" lon="1.24813">
        <ele>212</ele>
        <time>2022-07-08T08:50:19Z</time>
      </trkpt>
      <trkpt lat="43.31624" lon="1.24808">
        <ele>212</ele>
        <time>2022-07-08T08:50:24Z</time>
      </trkpt>
      <trkpt lat="43.31629" lon="1.24806">
        <ele>211</ele>
        <time>2022-07-08T08:50:29Z</time>
      </trkpt>
      <trkpt lat="43.31634" lon="1.24802">
        <ele>211</ele>
        <time>2022-07-08T08:50:34Z</time>
      </trkpt>
      <trkpt lat="43.31641" lon="1.24801">
        <ele>210</ele>
        <time>2022-07-08T08:50:42Z</time>
      </trkpt>
      <trkpt lat="43.31652" lon="1.24807">
        <ele>209</ele>
        <time>2022-07-08T08:50:55Z</time>
      </trkpt>
      <trkpt lat="43.31671" lon="1.24827">
        <ele>207</ele>
        <time>2022-07-08T08:51:14Z</time>
      </trkpt>
      <trkpt lat="43.31687" lon="1.24835">
        <ele>206</ele>
        <time>2022-07-08T08:51:32Z</time>
      </trkpt>
      <trkpt lat="43.31693" lon="1.24835">
        <ele>205</ele>
        <time>2022-07-08T08:51:46Z</time>
      </trkpt>
      <trkpt lat="43.31727" lon="1.24823">
        <ele>202</ele>
        <time>2022-07-08T08:52:18Z</time>
      </trkpt>
      <trkpt lat="43.3174" lon="1.24819">
        <ele>200</ele>
        <time>2022-07-08T08:52:30Z</time>
      </trkpt>
      <trkpt lat="43.31744" lon="1.24813">
        <ele>200</ele>
        <time>2022-07-08T08:52:37Z</time>
      </trkpt>
      <trkpt lat="43.31752" lon="1.2481">
        <ele>198</ele>
        <time>2022-07-08T08:52:48Z</time>
      </trkpt>
      <trkpt lat="43.31752" lon="1.24802">
        <ele>198</ele>
        <time>2022-07-08T08:52:54Z</time>
      </trkpt>
      <trkpt lat="43.3175" lon="1.24793">
        <ele>197</ele>
        <time>2022-07-08T08:53:01Z</time>
      </trkpt>
      <trkpt lat="43.31746" lon="1.24756">
        <ele>197</ele>
        <time>2022-07-08T08:53:30Z</time>
      </trkpt>
      <trkpt lat="43.31747" lon="1.24748">
        <ele>196</ele>
        <time>2022-07-08T08:53:38Z</time>
      </trkpt>
      <trkpt lat="43.31746" lon="1.24739">
        <ele>196</ele>
        <time>2022-07-08T08:53:44Z</time>
      </trkpt>
      <trkpt lat="43.31743" lon="1.24732">
        <ele>196</ele>
        <time>2022-07-08T08:53:49Z</time>
      </trkpt>
      <trkpt lat="43.31742" lon="1.24723">
        <ele>197</ele>
        <time>2022-07-08T08:53:58Z</time>
      </trkpt>
      <trkpt lat="43.3173" lon="1.24692">
        <ele>197</ele>
        <time>2022-07-08T08:54:56Z</time>
      </trkpt>
      <trkpt lat="43.31725" lon="1.24686">
        <ele>197</ele>
        <time>2022-07-08T08:55:20Z</time>
      </trkpt>
      <trkpt lat="43.31713" lon="1.24683">
        <ele>197</ele>
        <time>2022-07-08T08:55:57Z</time>
      </trkpt>
      <trkpt lat="43.31709" lon="1.2468">
        <ele>197</ele>
        <time>2022-07-08T08:56:02Z</time>
      </trkpt>
      <trkpt lat="43.31696" lon="1.24666">
        <ele>197</ele>
        <time>2022-07-08T08:56:43Z</time>
      </trkpt>
      <trkpt lat="43.31693" lon="1.2466">
        <ele>197</ele>
        <time>2022-07-08T08:56:47Z</time>
      </trkpt>
      <trkpt lat="43.31688" lon="1.24644">
        <ele>197</ele>
        <time>2022-07-08T08:56:58Z</time>
      </trkpt>
      <trkpt lat="43.31685" lon="1.24601">
        <ele>199</ele>
        <time>2022-07-08T08:57:24Z</time>
      </trkpt>
      <trkpt lat="43.3168" lon="1.24582">
        <ele>199</ele>
        <time>2022-07-08T08:57:38Z</time>
      </trkpt>
      <trkpt lat="43.31682" lon="1.2457">
        <ele>199</ele>
        <time>2022-07-08T08:57:46Z</time>
      </trkpt>
      <trkpt lat="43.31686" lon="1.24561">
        <ele>200</ele>
        <time>2022-07-08T08:57:56Z</time>
      </trkpt>
      <trkpt lat="43.31692" lon="1.24528">
        <ele>199</ele>
        <time>2022-07-08T08:58:19Z</time>
      </trkpt>
      <trkpt lat="43.31694" lon="1.24512">
        <ele>198</ele>
        <time>2022-07-08T08:58:29Z</time>
      </trkpt>
      <trkpt lat="43.31698" lon="1.24497">
        <ele>198</ele>
        <time>2022-07-08T08:58:41Z</time>
      </trkpt>
      <trkpt lat="43.31699" lon="1.24485">
        <ele>198</ele>
        <time>2022-07-08T08:58:50Z</time>
      </trkpt>
      <trkpt lat="43.31703" lon="1.24475">
        <ele>198</ele>
        <time>2022-07-08T08:59:08Z</time>
      </trkpt>
      <trkpt lat="43.31705" lon="1.24466">
        <ele>198</ele>
        <time>2022-07-08T08:59:14Z</time>
      </trkpt>
      <trkpt lat="43.31711" lon="1.24457">
        <ele>197</ele>
        <time>2022-07-08T08:59:22Z</time>
      </trkpt>
      <trkpt lat="43.31712" lon="1.24451">
        <ele>197</ele>
        <time>2022-07-08T08:59:25Z</time>
      </trkpt>
      <trkpt lat="43.31713" lon="1.24445">
        <ele>198</ele>
        <time>2022-07-08T08:59:29Z</time>
      </trkpt>
      <trkpt lat="43.31724" lon="1.24395">
        <ele>197</ele>
        <time>2022-07-08T09:00:02Z</time>
      </trkpt>
      <trkpt lat="43.31726" lon="1.24389">
        <ele>197</ele>
        <time>2022-07-08T09:00:07Z</time>
      </trkpt>
      <trkpt lat="43.31725" lon="1.24382">
        <ele>197</ele>
        <time>2022-07-08T09:00:12Z</time>
      </trkpt>
      <trkpt lat="43.31727" lon="1.24375">
        <ele>197</ele>
        <time>2022-07-08T09:00:16Z</time>
      </trkpt>
      <trkpt lat="43.31728" lon="1.24366">
        <ele>197</ele>
        <time>2022-07-08T09:00:22Z</time>
      </trkpt>
      <trkpt lat="43.31732" lon="1.24352">
        <ele>196</ele>
        <time>2022-07-08T09:00:32Z</time>
      </trkpt>
      <trkpt lat="43.31735" lon="1.24345">
        <ele>197</ele>
        <time>2022-07-08T09:00:37Z</time>
      </trkpt>
      <trkpt lat="43.31738" lon="1.24336">
        <ele>196</ele>
        <time>2022-07-08T09:00:43Z</time>
      </trkpt>
      <trkpt lat="43.31741" lon="1.24312">
        <ele>196</ele>
        <time>2022-07-08T09:00:56Z</time>
      </trkpt>
      <trkpt lat="43.31744" lon="1.24297">
        <ele>195</ele>
        <time>2022-07-08T09:01:05Z</time>
      </trkpt>
      <trkpt lat="43.31746" lon="1.24284">
        <ele>195</ele>
        <time>2022-07-08T09:01:13Z</time>
      </trkpt>
      <trkpt lat="43.31748" lon="1.24277">
        <ele>195</ele>
        <time>2022-07-08T09:01:18Z</time>
      </trkpt>
      <trkpt lat="43.31749" lon="1.2427">
        <ele>194</ele>
        <time>2022-07-08T09:01:23Z</time>
      </trkpt>
      <trkpt lat="43.31752" lon="1.24264">
        <ele>194</ele>
        <time>2022-07-08T09:01:28Z</time>
      </trkpt>
      <trkpt lat="43.31756" lon="1.24243">
        <ele>193</ele>
        <time>2022-07-08T09:01:42Z</time>
      </trkpt>
      <trkpt lat="43.31761" lon="1.2423">
        <ele>193</ele>
        <time>2022-07-08T09:01:52Z</time>
      </trkpt>
      <trkpt lat="43.31761" lon="1.24223">
        <ele>193</ele>
        <time>2022-07-08T09:01:57Z</time>
      </trkpt>
      <trkpt lat="43.31755" lon="1.24231">
        <ele>192</ele>
        <time>2022-07-08T09:02:05Z</time>
      </trkpt>
      <trkpt lat="43.31751" lon="1.24242">
        <ele>191</ele>
        <time>2022-07-08T09:02:15Z</time>
      </trkpt>
      <trkpt lat="43.31733" lon="1.24241">
        <ele>191</ele>
        <time>2022-07-08T09:02:34Z</time>
      </trkpt>
      <trkpt lat="43.31724" lon="1.24239">
        <ele>191</ele>
        <time>2022-07-08T09:02:42Z</time>
      </trkpt>
      <trkpt lat="43.31711" lon="1.24228">
        <ele>191</ele>
        <time>2022-07-08T09:02:56Z</time>
      </trkpt>
      <trkpt lat="43.31715" lon="1.2422">
        <ele>191</ele>
        <time>2022-07-08T09:03:53Z</time>
      </trkpt>
      <trkpt lat="43.3171" lon="1.24214">
        <ele>190</ele>
        <time>2022-07-08T09:04:17Z</time>
      </trkpt>
      <trkpt lat="43.31699" lon="1.24213">
        <ele>190</ele>
        <time>2022-07-08T09:04:29Z</time>
      </trkpt>
      <trkpt lat="43.31694" lon="1.24206">
        <ele>190</ele>
        <time>2022-07-08T09:04:37Z</time>
      </trkpt>
      <trkpt lat="43.3169" lon="1.24195">
        <ele>191</ele>
        <time>2022-07-08T09:04:46Z</time>
      </trkpt>
      <trkpt lat="43.31687" lon="1.24191">
        <ele>191</ele>
        <time>2022-07-08T09:04:50Z</time>
      </trkpt>
      <trkpt lat="43.31681" lon="1.24187">
        <ele>191</ele>
        <time>2022-07-08T09:04:56Z</time>
      </trkpt>
      <trkpt lat="43.31677" lon="1.24188">
        <ele>191</ele>
        <time>2022-07-08T09:05:01Z</time>
      </trkpt>
      <trkpt lat="43.31644" lon="1.24173">
        <ele>191</ele>
        <time>2022-07-08T09:05:32Z</time>
      </trkpt>
      <trkpt lat="43.31639" lon="1.24169">
        <ele>191</ele>
        <time>2022-07-08T09:05:37Z</time>
      </trkpt>
      <trkpt lat="43.31634" lon="1.24167">
        <ele>192</ele>
        <time>2022-07-08T09:05:42Z</time>
      </trkpt>
      <trkpt lat="43.31624" lon="1.24163">
        <ele>191</ele>
        <time>2022-07-08T09:05:51Z</time>
      </trkpt>
      <trkpt lat="43.31613" lon="1.24151">
        <ele>192</ele>
        <time>2022-07-08T09:06:04Z</time>
      </trkpt>
      <trkpt lat="43.31606" lon="1.24148">
        <ele>192</ele>
        <time>2022-07-08T09:06:11Z</time>
      </trkpt>
      <trkpt lat="43.31585" lon="1.24139">
        <ele>192</ele>
        <time>2022-07-08T09:06:30Z</time>
      </trkpt>
      <trkpt lat="43.31583" lon="1.24133">
        <ele>192</ele>
        <time>2022-07-08T09:06:33Z</time>
      </trkpt>
      <trkpt lat="43.3158" lon="1.24119">
        <ele>193</ele>
        <time>2022-07-08T09:06:41Z</time>
      </trkpt>
      <trkpt lat="43.31581" lon="1.24099">
        <ele>194</ele>
        <time>2022-07-08T09:06:57Z</time>
      </trkpt>
      <trkpt lat="43.31584" lon="1.24093">
        <ele>194</ele>
        <time>2022-07-08T09:07:02Z</time>
      </trkpt>
      <trkpt lat="43.31588" lon="1.24085">
        <ele>195</ele>
        <time>2022-07-08T09:07:08Z</time>
      </trkpt>
      <trkpt lat="43.31592" lon="1.2407">
        <ele>195</ele>
        <time>2022-07-08T09:07:19Z</time>
      </trkpt>
      <trkpt lat="43.31593" lon="1.24064">
        <ele>196</ele>
        <time>2022-07-08T09:07:24Z</time>
      </trkpt>
      <trkpt lat="43.316" lon="1.24049">
        <ele>197</ele>
        <time>2022-07-08T09:07:38Z</time>
      </trkpt>
      <trkpt lat="43.316" lon="1.24042">
        <ele>197</ele>
        <time>2022-07-08T09:07:43Z</time>
      </trkpt>
      <trkpt lat="43.31599" lon="1.24032">
        <ele>197</ele>
        <time>2022-07-08T09:07:53Z</time>
      </trkpt>
      <trkpt lat="43.31595" lon="1.24029">
        <ele>197</ele>
        <time>2022-07-08T09:07:59Z</time>
      </trkpt>
      <trkpt lat="43.31592" lon="1.24028">
        <ele>197</ele>
        <time>2022-07-08T09:08:03Z</time>
      </trkpt>
      <trkpt lat="43.31578" lon="1.24019">
        <ele>197</ele>
        <time>2022-07-08T09:08:18Z</time>
      </trkpt>
      <trkpt lat="43.31574" lon="1.24012">
        <ele>197</ele>
        <time>2022-07-08T09:08:38Z</time>
      </trkpt>
      <trkpt lat="43.31573" lon="1.24007">
        <ele>197</ele>
        <time>2022-07-08T09:08:56Z</time>
      </trkpt>
      <trkpt lat="43.31566" lon="1.24009">
        <ele>197</ele>
        <time>2022-07-08T09:09:07Z</time>
      </trkpt>
      <trkpt lat="43.31533" lon="1.23986">
        <ele>198</ele>
        <time>2022-07-08T09:09:42Z</time>
      </trkpt>
      <trkpt lat="43.31514" lon="1.2397">
        <ele>198</ele>
        <time>2022-07-08T09:10:00Z</time>
      </trkpt>
      <trkpt lat="43.31489" lon="1.23941">
        <ele>198</ele>
        <time>2022-07-08T09:10:30Z</time>
      </trkpt>
      <trkpt lat="43.3148" lon="1.23937">
        <ele>198</ele>
        <time>2022-07-08T09:10:38Z</time>
      </trkpt>
      <trkpt lat="43.31467" lon="1.23924">
        <ele>198</ele>
        <time>2022-07-08T09:10:51Z</time>
      </trkpt>
      <trkpt lat="43.31463" lon="1.23922">
        <ele>198</ele>
        <time>2022-07-08T09:10:56Z</time>
      </trkpt>
      <trkpt lat="43.31441" lon="1.239">
        <ele>198</ele>
        <time>2022-07-08T09:11:21Z</time>
      </trkpt>
      <trkpt lat="43.31436" lon="1.23898">
        <ele>198</ele>
        <time>2022-07-08T09:11:26Z</time>
      </trkpt>
      <trkpt lat="43.31432" lon="1.2389">
        <ele>198</ele>
        <time>2022-07-08T09:11:32Z</time>
      </trkpt>
      <trkpt lat="43.31428" lon="1.23879">
        <ele>198</ele>
        <time>2022-07-08T09:11:40Z</time>
      </trkpt>
      <trkpt lat="43.31406" lon="1.23845">
        <ele>199</ele>
        <time>2022-07-08T09:12:10Z</time>
      </trkpt>
      <trkpt lat="43.31391" lon="1.23821">
        <ele>199</ele>
        <time>2022-07-08T09:12:30Z</time>
      </trkpt>
      <trkpt lat="43.31389" lon="1.23816">
        <ele>199</ele>
        <time>2022-07-08T09:12:34Z</time>
      </trkpt>
      <trkpt lat="43.31386" lon="1.2381">
        <ele>199</ele>
        <time>2022-07-08T09:12:38Z</time>
      </trkpt>
      <trkpt lat="43.31381" lon="1.23797">
        <ele>200</ele>
        <time>2022-07-08T09:12:48Z</time>
      </trkpt>
      <trkpt lat="43.31375" lon="1.23785">
        <ele>199</ele>
        <time>2022-07-08T09:12:58Z</time>
      </trkpt>
      <trkpt lat="43.3137" lon="1.23779">
        <ele>199</ele>
        <time>2022-07-08T09:13:06Z</time>
      </trkpt>
      <trkpt lat="43.31368" lon="1.23773">
        <ele>199</ele>
        <time>2022-07-08T09:13:10Z</time>
      </trkpt>
      <trkpt lat="43.31358" lon="1.23755">
        <ele>200</ele>
        <time>2022-07-08T09:13:26Z</time>
      </trkpt>
      <trkpt lat="43.31356" lon="1.23749">
        <ele>200</ele>
        <time>2022-07-08T09:13:31Z</time>
      </trkpt>
      <trkpt lat="43.31353" lon="1.23743">
        <ele>200</ele>
        <time>2022-07-08T09:13:36Z</time>
      </trkpt>
      <trkpt lat="43.31349" lon="1.23739">
        <ele>200</ele>
        <time>2022-07-08T09:13:42Z</time>
      </trkpt>
      <trkpt lat="43.31346" lon="1.23727">
        <ele>200</ele>
        <time>2022-07-08T09:13:51Z</time>
      </trkpt>
      <trkpt lat="43.31331" lon="1.23702">
        <ele>200</ele>
        <time>2022-07-08T09:14:22Z</time>
      </trkpt>
      <trkpt lat="43.31316" lon="1.23671">
        <ele>200</ele>
        <time>2022-07-08T09:14:45Z</time>
      </trkpt>
      <trkpt lat="43.31313" lon="1.23665">
        <ele>200</ele>
        <time>2022-07-08T09:14:49Z</time>
      </trkpt>
      <trkpt lat="43.31305" lon="1.23653">
        <ele>200</ele>
        <time>2022-07-08T09:15:01Z</time>
      </trkpt>
      <trkpt lat="43.31302" lon="1.23649">
        <ele>200</ele>
        <time>2022-07-08T09:15:05Z</time>
      </trkpt>
      <trkpt lat="43.31298" lon="1.23648">
        <ele>200</ele>
        <time>2022-07-08T09:15:09Z</time>
      </trkpt>
      <trkpt lat="43.31292" lon="1.23638">
        <ele>200</ele>
        <time>2022-07-08T09:15:17Z</time>
      </trkpt>
      <trkpt lat="43.31283" lon="1.23631">
        <ele>200</ele>
        <time>2022-07-08T09:15:28Z</time>
      </trkpt>
      <trkpt lat="43.31284" lon="1.23622">
        <ele>200</ele>
        <time>2022-07-08T09:16:24Z</time>
      </trkpt>
      <trkpt lat="43.31277" lon="1.23625">
        <ele>200</ele>
        <time>2022-07-08T09:16:54Z</time>
      </trkpt>
      <trkpt lat="43.31272" lon="1.23622">
        <ele>200</ele>
        <time>2022-07-08T09:17:01Z</time>
      </trkpt>
      <trkpt lat="43.31268" lon="1.23618">
        <ele>200</ele>
        <time>2022-07-08T09:17:08Z</time>
      </trkpt>
      <trkpt lat="43.3126" lon="1.23614">
        <ele>200</ele>
        <time>2022-07-08T09:17:15Z</time>
      </trkpt>
      <trkpt lat="43.31241" lon="1.23601">
        <ele>200</ele>
        <time>2022-07-08T09:17:34Z</time>
      </trkpt>
      <trkpt lat="43.31223" lon="1.2359">
        <ele>200</ele>
        <time>2022-07-08T09:17:51Z</time>
      </trkpt>
      <trkpt lat="43.31198" lon="1.23567">
        <ele>200</ele>
        <time>2022-07-08T09:18:17Z</time>
      </trkpt>
      <trkpt lat="43.31188" lon="1.23562">
        <ele>200</ele>
        <time>2022-07-08T09:18:26Z</time>
      </trkpt>
      <trkpt lat="43.31155" lon="1.23532">
        <ele>201</ele>
        <time>2022-07-08T09:19:01Z</time>
      </trkpt>
      <trkpt lat="43.31128" lon="1.23499">
        <ele>201</ele>
        <time>2022-07-08T09:19:33Z</time>
      </trkpt>
      <trkpt lat="43.31124" lon="1.23493">
        <ele>201</ele>
        <time>2022-07-08T09:19:38Z</time>
      </trkpt>
      <trkpt lat="43.31121" lon="1.23488">
        <ele>201</ele>
        <time>2022-07-08T09:19:43Z</time>
      </trkpt>
      <trkpt lat="43.31114" lon="1.23474">
        <ele>201</ele>
        <time>2022-07-08T09:19:54Z</time>
      </trkpt>
      <trkpt lat="43.31107" lon="1.23463">
        <ele>201</ele>
        <time>2022-07-08T09:20:04Z</time>
      </trkpt>
      <trkpt lat="43.31104" lon="1.23456">
        <ele>201</ele>
        <time>2022-07-08T09:20:10Z</time>
      </trkpt>
      <trkpt lat="43.31094" lon="1.23438">
        <ele>201</ele>
        <time>2022-07-08T09:20:22Z</time>
      </trkpt>
      <trkpt lat="43.31088" lon="1.23428">
        <ele>201</ele>
        <time>2022-07-08T09:20:31Z</time>
      </trkpt>
      <trkpt lat="43.31085" lon="1.23422">
        <ele>200</ele>
        <time>2022-07-08T09:20:36Z</time>
      </trkpt>
      <trkpt lat="43.31078" lon="1.23413">
        <ele>201</ele>
        <time>2022-07-08T09:20:46Z</time>
      </trkpt>
      <trkpt lat="43.31073" lon="1.23411">
        <ele>201</ele>
        <time>2022-07-08T09:20:50Z</time>
      </trkpt>
      <trkpt lat="43.31069" lon="1.23407">
        <ele>200</ele>
        <time>2022-07-08T09:20:54Z</time>
      </trkpt>
      <trkpt lat="43.31058" lon="1.234">
        <ele>201</ele>
        <time>2022-07-08T09:21:06Z</time>
      </trkpt>
      <trkpt lat="43.31027" lon="1.23372">
        <ele>202</ele>
        <time>2022-07-08T09:21:41Z</time>
      </trkpt>
      <trkpt lat="43.31008" lon="1.23362">
        <ele>202</ele>
        <time>2022-07-08T09:22:01Z</time>
      </trkpt>
      <trkpt lat="43.31004" lon="1.23358">
        <ele>202</ele>
        <time>2022-07-08T09:22:05Z</time>
      </trkpt>
      <trkpt lat="43.30989" lon="1.23348">
        <ele>202</ele>
        <time>2022-07-08T09:22:20Z</time>
      </trkpt>
      <trkpt lat="43.30985" lon="1.23343">
        <ele>202</ele>
        <time>2022-07-08T09:22:25Z</time>
      </trkpt>
      <trkpt lat="43.30982" lon="1.23338">
        <ele>203</ele>
        <time>2022-07-08T09:22:29Z</time>
      </trkpt>
      <trkpt lat="43.30972" lon="1.2333">
        <ele>203</ele>
        <time>2022-07-08T09:22:40Z</time>
      </trkpt>
      <trkpt lat="43.30968" lon="1.23327">
        <ele>203</ele>
        <time>2022-07-08T09:22:50Z</time>
      </trkpt>
      <trkpt lat="43.30965" lon="1.23324">
        <ele>203</ele>
        <time>2022-07-08T09:22:54Z</time>
      </trkpt>
      <trkpt lat="43.30948" lon="1.233">
        <ele>204</ele>
        <time>2022-07-08T09:23:18Z</time>
      </trkpt>
      <trkpt lat="43.30942" lon="1.23297">
        <ele>203</ele>
        <time>2022-07-08T09:23:25Z</time>
      </trkpt>
      <trkpt lat="43.30931" lon="1.23281">
        <ele>203</ele>
        <time>2022-07-08T09:23:39Z</time>
      </trkpt>
      <trkpt lat="43.30931" lon="1.23276">
        <ele>204</ele>
        <time>2022-07-08T09:23:59Z</time>
      </trkpt>
      <trkpt lat="43.30926" lon="1.23276">
        <ele>204</ele>
        <time>2022-07-08T09:24:28Z</time>
      </trkpt>
      <trkpt lat="43.30922" lon="1.23275">
        <ele>204</ele>
        <time>2022-07-08T09:24:33Z</time>
      </trkpt>
      <trkpt lat="43.30915" lon="1.23274">
        <ele>203</ele>
        <time>2022-07-08T09:24:45Z</time>
      </trkpt>
      <trkpt lat="43.30903" lon="1.23276">
        <ele>203</ele>
        <time>2022-07-08T09:25:02Z</time>
      </trkpt>
      <trkpt lat="43.30896" lon="1.23271">
        <ele>203</ele>
        <time>2022-07-08T09:25:08Z</time>
      </trkpt>
      <trkpt lat="43.30877" lon="1.2327">
        <ele>203</ele>
        <time>2022-07-08T09:25:24Z</time>
      </trkpt>
      <trkpt lat="43.30861" lon="1.23264">
        <ele>203</ele>
        <time>2022-07-08T09:25:38Z</time>
      </trkpt>
      <trkpt lat="43.30829" lon="1.23261">
        <ele>203</ele>
        <time>2022-07-08T09:26:06Z</time>
      </trkpt>
      <trkpt lat="43.30826" lon="1.23258">
        <ele>203</ele>
        <time>2022-07-08T09:26:10Z</time>
      </trkpt>
      <trkpt lat="43.3081" lon="1.23253">
        <ele>203</ele>
        <time>2022-07-08T09:26:25Z</time>
      </trkpt>
      <trkpt lat="43.30804" lon="1.23253">
        <ele>203</ele>
        <time>2022-07-08T09:26:30Z</time>
      </trkpt>
      <trkpt lat="43.3079" lon="1.2325">
        <ele>203</ele>
        <time>2022-07-08T09:26:43Z</time>
      </trkpt>
      <trkpt lat="43.30785" lon="1.23251">
        <ele>203</ele>
        <time>2022-07-08T09:26:47Z</time>
      </trkpt>
      <trkpt lat="43.30757" lon="1.23244">
        <ele>202</ele>
        <time>2022-07-08T09:27:13Z</time>
      </trkpt>
      <trkpt lat="43.30749" lon="1.23246">
        <ele>202</ele>
        <time>2022-07-08T09:27:21Z</time>
      </trkpt>
      <trkpt lat="43.30722" lon="1.23236">
        <ele>203</ele>
        <time>2022-07-08T09:27:46Z</time>
      </trkpt>
      <trkpt lat="43.30713" lon="1.23232">
        <ele>203</ele>
        <time>2022-07-08T09:27:54Z</time>
      </trkpt>
      <trkpt lat="43.30684" lon="1.23223">
        <ele>203</ele>
        <time>2022-07-08T09:28:21Z</time>
      </trkpt>
      <trkpt lat="43.3068" lon="1.2322">
        <ele>203</ele>
        <time>2022-07-08T09:28:26Z</time>
      </trkpt>
      <trkpt lat="43.30675" lon="1.23219">
        <ele>203</ele>
        <time>2022-07-08T09:28:30Z</time>
      </trkpt>
      <trkpt lat="43.30672" lon="1.23216">
        <ele>203</ele>
        <time>2022-07-08T09:28:34Z</time>
      </trkpt>
      <trkpt lat="43.30667" lon="1.23216">
        <ele>203</ele>
        <time>2022-07-08T09:28:38Z</time>
      </trkpt>
      <trkpt lat="43.3063" lon="1.23202">
        <ele>204</ele>
        <time>2022-07-08T09:29:12Z</time>
      </trkpt>
      <trkpt lat="43.30606" lon="1.2318">
        <ele>204</ele>
        <time>2022-07-08T09:29:38Z</time>
      </trkpt>
      <trkpt lat="43.30601" lon="1.23179">
        <ele>204</ele>
        <time>2022-07-08T09:29:42Z</time>
      </trkpt>
      <trkpt lat="43.30587" lon="1.23164">
        <ele>204</ele>
        <time>2022-07-08T09:29:58Z</time>
      </trkpt>
      <trkpt lat="43.30583" lon="1.23158">
        <ele>204</ele>
        <time>2022-07-08T09:30:03Z</time>
      </trkpt>
      <trkpt lat="43.3058" lon="1.23155">
        <ele>204</ele>
        <time>2022-07-08T09:30:07Z</time>
      </trkpt>
      <trkpt lat="43.30577" lon="1.23151">
        <ele>204</ele>
        <time>2022-07-08T09:30:10Z</time>
      </trkpt>
      <trkpt lat="43.30559" lon="1.23134">
        <ele>204</ele>
        <time>2022-07-08T09:30:29Z</time>
      </trkpt>
      <trkpt lat="43.30556" lon="1.23129">
        <ele>204</ele>
        <time>2022-07-08T09:30:33Z</time>
      </trkpt>
      <trkpt lat="43.30546" lon="1.23118">
        <ele>204</ele>
        <time>2022-07-08T09:30:45Z</time>
      </trkpt>
      <trkpt lat="43.3054" lon="1.23109">
        <ele>205</ele>
        <time>2022-07-08T09:30:54Z</time>
      </trkpt>
      <trkpt lat="43.30536" lon="1.23106">
        <ele>205</ele>
        <time>2022-07-08T09:30:58Z</time>
      </trkpt>
      <trkpt lat="43.30512" lon="1.23071">
        <ele>205</ele>
        <time>2022-07-08T09:31:31Z</time>
      </trkpt>
      <trkpt lat="43.30495" lon="1.23051">
        <ele>205</ele>
        <time>2022-07-08T09:31:51Z</time>
      </trkpt>
      <trkpt lat="43.30483" lon="1.2303">
        <ele>205</ele>
        <time>2022-07-08T09:32:08Z</time>
      </trkpt>
      <trkpt lat="43.30468" lon="1.23013">
        <ele>205</ele>
        <time>2022-07-08T09:32:27Z</time>
      </trkpt>
      <trkpt lat="43.30466" lon="1.23007">
        <ele>206</ele>
        <time>2022-07-08T09:32:32Z</time>
      </trkpt>
      <trkpt lat="43.30458" lon="1.22999">
        <ele>206</ele>
        <time>2022-07-08T09:32:41Z</time>
      </trkpt>
      <trkpt lat="43.30453" lon="1.22996">
        <ele>206</ele>
        <time>2022-07-08T09:32:49Z</time>
      </trkpt>
      <trkpt lat="43.30449" lon="1.2299">
        <ele>206</ele>
        <time>2022-07-08T09:33:01Z</time>
      </trkpt>
      <trkpt lat="43.30447" lon="1.22983">
        <ele>207</ele>
        <time>2022-07-08T09:33:43Z</time>
      </trkpt>
      <trkpt lat="43.30441" lon="1.22982">
        <ele>207</ele>
        <time>2022-07-08T09:33:55Z</time>
      </trkpt>
      <trkpt lat="43.30433" lon="1.22976">
        <ele>207</ele>
        <time>2022-07-08T09:34:04Z</time>
      </trkpt>
      <trkpt lat="43.30424" lon="1.22967">
        <ele>207</ele>
        <time>2022-07-08T09:34:15Z</time>
      </trkpt>
      <trkpt lat="43.30422" lon="1.22961">
        <ele>207</ele>
        <time>2022-07-08T09:34:18Z</time>
      </trkpt>
      <trkpt lat="43.30417" lon="1.22956">
        <ele>208</ele>
        <time>2022-07-08T09:34:25Z</time>
      </trkpt>
      <trkpt lat="43.30403" lon="1.22949">
        <ele>208</ele>
        <time>2022-07-08T09:34:39Z</time>
      </trkpt>
      <trkpt lat="43.30398" lon="1.22944">
        <ele>208</ele>
        <time>2022-07-08T09:34:45Z</time>
      </trkpt>
      <trkpt lat="43.30393" lon="1.22943">
        <ele>208</ele>
        <time>2022-07-08T09:34:50Z</time>
      </trkpt>
      <trkpt lat="43.30381" lon="1.22936">
        <ele>208</ele>
        <time>2022-07-08T09:35:02Z</time>
      </trkpt>
      <trkpt lat="43.30368" lon="1.22933">
        <ele>208</ele>
        <time>2022-07-08T09:35:15Z</time>
      </trkpt>
      <trkpt lat="43.30357" lon="1.22929">
        <ele>209</ele>
        <time>2022-07-08T09:35:26Z</time>
      </trkpt>
      <trkpt lat="43.30347" lon="1.22924">
        <ele>209</ele>
        <time>2022-07-08T09:35:36Z</time>
      </trkpt>
      <trkpt lat="43.30325" lon="1.22918">
        <ele>209</ele>
        <time>2022-07-08T09:35:57Z</time>
      </trkpt>
      <trkpt lat="43.30316" lon="1.2292">
        <ele>209</ele>
        <time>2022-07-08T09:36:04Z</time>
      </trkpt>
      <trkpt lat="43.30311" lon="1.2292">
        <ele>209</ele>
        <time>2022-07-08T09:36:09Z</time>
      </trkpt>
      <trkpt lat="43.30301" lon="1.22912">
        <ele>209</ele>
        <time>2022-07-08T09:36:22Z</time>
      </trkpt>
      <trkpt lat="43.3027" lon="1.22901">
        <ele>209</ele>
        <time>2022-07-08T09:36:52Z</time>
      </trkpt>
      <trkpt lat="43.30264" lon="1.22898">
        <ele>209</ele>
        <time>2022-07-08T09:37:10Z</time>
      </trkpt>
      <trkpt lat="43.30254" lon="1.22896">
        <ele>209</ele>
        <time>2022-07-08T09:37:21Z</time>
      </trkpt>
      <trkpt lat="43.30218" lon="1.22881">
        <ele>209</ele>
        <time>2022-07-08T09:37:55Z</time>
      </trkpt>
      <trkpt lat="43.30205" lon="1.22877">
        <ele>209</ele>
        <time>2022-07-08T09:38:07Z</time>
      </trkpt>
      <trkpt lat="43.30191" lon="1.2287">
        <ele>209</ele>
        <time>2022-07-08T09:38:22Z</time>
      </trkpt>
      <trkpt lat="43.30186" lon="1.22873">
        <ele>209</ele>
        <time>2022-07-08T09:38:27Z</time>
      </trkpt>
      <trkpt lat="43.3015" lon="1.22857">
        <ele>209</ele>
        <time>2022-07-08T09:39:00Z</time>
      </trkpt>
      <trkpt lat="43.30136" lon="1.2285">
        <ele>209</ele>
        <time>2022-07-08T09:39:15Z</time>
      </trkpt>
      <trkpt lat="43.30132" lon="1.22849">
        <ele>209</ele>
        <time>2022-07-08T09:39:19Z</time>
      </trkpt>
      <trkpt lat="43.30128" lon="1.22846">
        <ele>209</ele>
        <time>2022-07-08T09:39:23Z</time>
      </trkpt>
      <trkpt lat="43.301" lon="1.22831">
        <ele>209</ele>
        <time>2022-07-08T09:39:50Z</time>
      </trkpt>
      <trkpt lat="43.30096" lon="1.2283">
        <ele>209</ele>
        <time>2022-07-08T09:39:54Z</time>
      </trkpt>
      <trkpt lat="43.30093" lon="1.22827">
        <ele>209</ele>
        <time>2022-07-08T09:39:58Z</time>
      </trkpt>
      <trkpt lat="43.30088" lon="1.22824">
        <ele>210</ele>
        <time>2022-07-08T09:40:03Z</time>
      </trkpt>
      <trkpt lat="43.30083" lon="1.22821">
        <ele>209</ele>
        <time>2022-07-08T09:40:08Z</time>
      </trkpt>
      <trkpt lat="43.30079" lon="1.2282">
        <ele>209</ele>
        <time>2022-07-08T09:40:11Z</time>
      </trkpt>
      <trkpt lat="43.30075" lon="1.22819">
        <ele>209</ele>
        <time>2022-07-08T09:40:15Z</time>
      </trkpt>
      <trkpt lat="43.30055" lon="1.22805">
        <ele>210</ele>
        <time>2022-07-08T09:40:38Z</time>
      </trkpt>
      <trkpt lat="43.30051" lon="1.22804">
        <ele>210</ele>
        <time>2022-07-08T09:40:42Z</time>
      </trkpt>
      <trkpt lat="43.30045" lon="1.22796">
        <ele>210</ele>
        <time>2022-07-08T09:40:49Z</time>
      </trkpt>
      <trkpt lat="43.3004" lon="1.22794">
        <ele>211</ele>
        <time>2022-07-08T09:41:22Z</time>
      </trkpt>
      <trkpt lat="43.30035" lon="1.22796">
        <ele>210</ele>
        <time>2022-07-08T09:41:47Z</time>
      </trkpt>
      <trkpt lat="43.30031" lon="1.22795">
        <ele>210</ele>
        <time>2022-07-08T09:41:51Z</time>
      </trkpt>
      <trkpt lat="43.30022" lon="1.22791">
        <ele>210</ele>
        <time>2022-07-08T09:42:03Z</time>
      </trkpt>
      <trkpt lat="43.30018" lon="1.22788">
        <ele>210</ele>
        <time>2022-07-08T09:43:21Z</time>
      </trkpt>
      <trkpt lat="43.29993" lon="1.22772">
        <ele>210</ele>
        <time>2022-07-08T09:43:52Z</time>
      </trkpt>
      <trkpt lat="43.29972" lon="1.22758">
        <ele>210</ele>
        <time>2022-07-08T09:44:18Z</time>
      </trkpt>
      <trkpt lat="43.29963" lon="1.22754">
        <ele>210</ele>
        <time>2022-07-08T09:44:24Z</time>
      </trkpt>
      <trkpt lat="43.2996" lon="1.22749">
        <ele>209</ele>
        <time>2022-07-08T09:44:28Z</time>
      </trkpt>
      <trkpt lat="43.29923" lon="1.22722">
        <ele>209</ele>
        <time>2022-07-08T09:45:05Z</time>
      </trkpt>
      <trkpt lat="43.29914" lon="1.22714">
        <ele>209</ele>
        <time>2022-07-08T09:45:14Z</time>
      </trkpt>
      <trkpt lat="43.299" lon="1.22707">
        <ele>209</ele>
        <time>2022-07-08T09:45:28Z</time>
      </trkpt>
      <trkpt lat="43.29895" lon="1.22703">
        <ele>209</ele>
        <time>2022-07-08T09:45:33Z</time>
      </trkpt>
      <trkpt lat="43.29891" lon="1.22702">
        <ele>208</ele>
        <time>2022-07-08T09:45:37Z</time>
      </trkpt>
      <trkpt lat="43.29883" lon="1.22695">
        <ele>209</ele>
        <time>2022-07-08T09:45:45Z</time>
      </trkpt>
      <trkpt lat="43.29873" lon="1.22689">
        <ele>209</ele>
        <time>2022-07-08T09:45:55Z</time>
      </trkpt>
      <trkpt lat="43.29865" lon="1.22682">
        <ele>208</ele>
        <time>2022-07-08T09:46:03Z</time>
      </trkpt>
      <trkpt lat="43.29861" lon="1.2268">
        <ele>208</ele>
        <time>2022-07-08T09:46:06Z</time>
      </trkpt>
      <trkpt lat="43.29854" lon="1.22674">
        <ele>208</ele>
        <time>2022-07-08T09:46:15Z</time>
      </trkpt>
      <trkpt lat="43.2985" lon="1.2267">
        <ele>208</ele>
        <time>2022-07-08T09:46:19Z</time>
      </trkpt>
      <trkpt lat="43.29844" lon="1.22667">
        <ele>208</ele>
        <time>2022-07-08T09:46:25Z</time>
      </trkpt>
      <trkpt lat="43.29838" lon="1.22672">
        <ele>208</ele>
        <time>2022-07-08T09:46:39Z</time>
      </trkpt>
      <trkpt lat="43.29832" lon="1.22661">
        <ele>208</ele>
        <time>2022-07-08T09:46:50Z</time>
      </trkpt>
      <trkpt lat="43.29827" lon="1.22659">
        <ele>208</ele>
        <time>2022-07-08T09:46:55Z</time>
      </trkpt>
      <trkpt lat="43.29821" lon="1.22659">
        <ele>208</ele>
        <time>2022-07-08T09:47:01Z</time>
      </trkpt>
      <trkpt lat="43.29807" lon="1.22647">
        <ele>208</ele>
        <time>2022-07-08T09:47:16Z</time>
      </trkpt>
      <trkpt lat="43.29797" lon="1.22643">
        <ele>207</ele>
        <time>2022-07-08T09:47:27Z</time>
      </trkpt>
      <trkpt lat="43.29793" lon="1.22639">
        <ele>207</ele>
        <time>2022-07-08T09:48:07Z</time>
      </trkpt>
      <trkpt lat="43.29766" lon="1.22632">
        <ele>207</ele>
        <time>2022-07-08T09:48:33Z</time>
      </trkpt>
      <trkpt lat="43.29761" lon="1.2263">
        <ele>207</ele>
        <time>2022-07-08T09:48:37Z</time>
      </trkpt>
      <trkpt lat="43.29733" lon="1.22621">
        <ele>207</ele>
        <time>2022-07-08T09:49:04Z</time>
      </trkpt>
      <trkpt lat="43.29722" lon="1.22611">
        <ele>207</ele>
        <time>2022-07-08T09:49:17Z</time>
      </trkpt>
      <trkpt lat="43.29712" lon="1.22612">
        <ele>207</ele>
        <time>2022-07-08T09:49:27Z</time>
      </trkpt>
      <trkpt lat="43.29692" lon="1.22605">
        <ele>207</ele>
        <time>2022-07-08T09:49:49Z</time>
      </trkpt>
      <trkpt lat="43.29686" lon="1.22591">
        <ele>206</ele>
        <time>2022-07-08T09:50:03Z</time>
      </trkpt>
      <trkpt lat="43.2969" lon="1.22583">
        <ele>207</ele>
        <time>2022-07-08T09:50:14Z</time>
      </trkpt>
      <trkpt lat="43.29688" lon="1.22583">
        <ele>207</ele>
        <time>2022-07-08T09:51:11Z</time>
      </trkpt>
      <trkpt lat="43.29689" lon="1.22584">
        <ele>205</ele>
        <time>2022-07-08T09:53:05Z</time>
      </trkpt>
      <trkpt lat="43.29693" lon="1.2258">
        <ele>205</ele>
        <time>2022-07-08T09:56:51Z</time>
      </trkpt>
      <trkpt lat="43.29689" lon="1.22581">
        <ele>206</ele>
        <time>2022-07-08T09:59:39Z</time>
      </trkpt>
      <trkpt lat="43.29692" lon="1.22573">
        <ele>206</ele>
        <time>2022-07-08T09:59:57Z</time>
      </trkpt>
      <trkpt lat="43.29693" lon="1.22566">
        <ele>206</ele>
        <time>2022-07-08T10:00:02Z</time>
      </trkpt>
      <trkpt lat="43.29695" lon="1.22545">
        <ele>207</ele>
        <time>2022-07-08T10:00:19Z</time>
      </trkpt>
      <trkpt lat="43.2969" lon="1.22538">
        <ele>207</ele>
        <time>2022-07-08T10:00:26Z</time>
      </trkpt>
      <trkpt lat="43.29688" lon="1.2253">
        <ele>207</ele>
        <time>2022-07-08T10:00:35Z</time>
      </trkpt>
      <trkpt lat="43.2969" lon="1.22497">
        <ele>207</ele>
        <time>2022-07-08T10:00:57Z</time>
      </trkpt>
      <trkpt lat="43.29689" lon="1.22487">
        <ele>207</ele>
        <time>2022-07-08T10:01:06Z</time>
      </trkpt>
      <trkpt lat="43.29684" lon="1.2248">
        <ele>207</ele>
        <time>2022-07-08T10:01:13Z</time>
      </trkpt>
      <trkpt lat="43.29682" lon="1.22461">
        <ele>207</ele>
        <time>2022-07-08T10:01:30Z</time>
      </trkpt>
      <trkpt lat="43.2969" lon="1.22422">
        <ele>207</ele>
        <time>2022-07-08T10:01:54Z</time>
      </trkpt>
      <trkpt lat="43.29693" lon="1.22415">
        <ele>207</ele>
        <time>2022-07-08T10:02:01Z</time>
      </trkpt>
      <trkpt lat="43.29693" lon="1.22395">
        <ele>208</ele>
        <time>2022-07-08T10:02:15Z</time>
      </trkpt>
      <trkpt lat="43.29695" lon="1.22369">
        <ele>208</ele>
        <time>2022-07-08T10:02:34Z</time>
      </trkpt>
      <trkpt lat="43.29694" lon="1.22361">
        <ele>209</ele>
        <time>2022-07-08T10:02:40Z</time>
      </trkpt>
      <trkpt lat="43.29695" lon="1.22344">
        <ele>209</ele>
        <time>2022-07-08T10:02:52Z</time>
      </trkpt>
      <trkpt lat="43.29694" lon="1.22335">
        <ele>209</ele>
        <time>2022-07-08T10:02:59Z</time>
      </trkpt>
      <trkpt lat="43.29694" lon="1.22328">
        <ele>209</ele>
        <time>2022-07-08T10:03:04Z</time>
      </trkpt>
      <trkpt lat="43.29696" lon="1.22322">
        <ele>209</ele>
        <time>2022-07-08T10:03:08Z</time>
      </trkpt>
      <trkpt lat="43.29695" lon="1.22311">
        <ele>210</ele>
        <time>2022-07-08T10:03:16Z</time>
      </trkpt>
      <trkpt lat="43.29689" lon="1.22292">
        <ele>209</ele>
        <time>2022-07-08T10:03:33Z</time>
      </trkpt>
      <trkpt lat="43.29686" lon="1.22287">
        <ele>209</ele>
        <time>2022-07-08T10:03:39Z</time>
      </trkpt>
      <trkpt lat="43.29683" lon="1.22276">
        <ele>209</ele>
        <time>2022-07-08T10:04:15Z</time>
      </trkpt>
      <trkpt lat="43.29687" lon="1.22267">
        <ele>210</ele>
        <time>2022-07-08T10:04:23Z</time>
      </trkpt>
      <trkpt lat="43.29688" lon="1.2226">
        <ele>210</ele>
        <time>2022-07-08T10:04:27Z</time>
      </trkpt>
      <trkpt lat="43.29688" lon="1.22253">
        <ele>210</ele>
        <time>2022-07-08T10:04:32Z</time>
      </trkpt>
      <trkpt lat="43.29691" lon="1.22244">
        <ele>210</ele>
        <time>2022-07-08T10:04:39Z</time>
      </trkpt>
      <trkpt lat="43.2969" lon="1.2223">
        <ele>210</ele>
        <time>2022-07-08T10:04:48Z</time>
      </trkpt>
      <trkpt lat="43.29692" lon="1.22223">
        <ele>210</ele>
        <time>2022-07-08T10:04:53Z</time>
      </trkpt>
      <trkpt lat="43.29694" lon="1.22204">
        <ele>210</ele>
        <time>2022-07-08T10:05:07Z</time>
      </trkpt>
      <trkpt lat="43.29693" lon="1.22197">
        <ele>210</ele>
        <time>2022-07-08T10:05:11Z</time>
      </trkpt>
      <trkpt lat="43.29695" lon="1.22189">
        <ele>210</ele>
        <time>2022-07-08T10:05:15Z</time>
      </trkpt>
      <trkpt lat="43.29698" lon="1.22183">
        <ele>210</ele>
        <time>2022-07-08T10:05:19Z</time>
      </trkpt>
      <trkpt lat="43.297" lon="1.22176">
        <ele>210</ele>
        <time>2022-07-08T10:05:24Z</time>
      </trkpt>
      <trkpt lat="43.29698" lon="1.22169">
        <ele>210</ele>
        <time>2022-07-08T10:05:38Z</time>
      </trkpt>
      <trkpt lat="43.29701" lon="1.22141">
        <ele>210</ele>
        <time>2022-07-08T10:05:57Z</time>
      </trkpt>
      <trkpt lat="43.29699" lon="1.22111">
        <ele>210</ele>
        <time>2022-07-08T10:06:19Z</time>
      </trkpt>
      <trkpt lat="43.29701" lon="1.22103">
        <ele>210</ele>
        <time>2022-07-08T10:06:25Z</time>
      </trkpt>
      <trkpt lat="43.29699" lon="1.22098">
        <ele>210</ele>
        <time>2022-07-08T10:06:29Z</time>
      </trkpt>
      <trkpt lat="43.29698" lon="1.22049">
        <ele>210</ele>
        <time>2022-07-08T10:07:04Z</time>
      </trkpt>
      <trkpt lat="43.29699" lon="1.22035">
        <ele>211</ele>
        <time>2022-07-08T10:07:16Z</time>
      </trkpt>
      <trkpt lat="43.297" lon="1.22028">
        <ele>210</ele>
        <time>2022-07-08T10:07:20Z</time>
      </trkpt>
      <trkpt lat="43.29698" lon="1.22021">
        <ele>211</ele>
        <time>2022-07-08T10:07:24Z</time>
      </trkpt>
      <trkpt lat="43.29704" lon="1.21981">
        <ele>211</ele>
        <time>2022-07-08T10:07:55Z</time>
      </trkpt>
      <trkpt lat="43.2971" lon="1.21959">
        <ele>211</ele>
        <time>2022-07-08T10:08:10Z</time>
      </trkpt>
      <trkpt lat="43.29708" lon="1.21947">
        <ele>211</ele>
        <time>2022-07-08T10:08:20Z</time>
      </trkpt>
      <trkpt lat="43.29707" lon="1.21938">
        <ele>211</ele>
        <time>2022-07-08T10:08:29Z</time>
      </trkpt>
      <trkpt lat="43.29705" lon="1.2193">
        <ele>211</ele>
        <time>2022-07-08T10:08:35Z</time>
      </trkpt>
      <trkpt lat="43.29704" lon="1.21904">
        <ele>210</ele>
        <time>2022-07-08T10:08:56Z</time>
      </trkpt>
      <trkpt lat="43.297" lon="1.219">
        <ele>210</ele>
        <time>2022-07-08T10:09:00Z</time>
      </trkpt>
      <trkpt lat="43.29696" lon="1.21891">
        <ele>210</ele>
        <time>2022-07-08T10:09:13Z</time>
      </trkpt>
      <trkpt lat="43.29699" lon="1.21879">
        <ele>210</ele>
        <time>2022-07-08T10:09:43Z</time>
      </trkpt>
      <trkpt lat="43.297" lon="1.21873">
        <ele>210</ele>
        <time>2022-07-08T10:09:50Z</time>
      </trkpt>
      <trkpt lat="43.29701" lon="1.21866">
        <ele>210</ele>
        <time>2022-07-08T10:09:54Z</time>
      </trkpt>
      <trkpt lat="43.29703" lon="1.2186">
        <ele>210</ele>
        <time>2022-07-08T10:09:58Z</time>
      </trkpt>
      <trkpt lat="43.29706" lon="1.21854">
        <ele>210</ele>
        <time>2022-07-08T10:10:01Z</time>
      </trkpt>
      <trkpt lat="43.29707" lon="1.21848">
        <ele>211</ele>
        <time>2022-07-08T10:10:05Z</time>
      </trkpt>
      <trkpt lat="43.29713" lon="1.21834">
        <ele>211</ele>
        <time>2022-07-08T10:10:16Z</time>
      </trkpt>
      <trkpt lat="43.29717" lon="1.21828">
        <ele>211</ele>
        <time>2022-07-08T10:10:21Z</time>
      </trkpt>
      <trkpt lat="43.29719" lon="1.21822">
        <ele>211</ele>
        <time>2022-07-08T10:10:26Z</time>
      </trkpt>
      <trkpt lat="43.29728" lon="1.2181">
        <ele>211</ele>
        <time>2022-07-08T10:10:38Z</time>
      </trkpt>
      <trkpt lat="43.29734" lon="1.2181">
        <ele>211</ele>
        <time>2022-07-08T10:10:43Z</time>
      </trkpt>
      <trkpt lat="43.29738" lon="1.21811">
        <ele>211</ele>
        <time>2022-07-08T10:11:16Z</time>
      </trkpt>
      <trkpt lat="43.29739" lon="1.21803">
        <ele>212</ele>
        <time>2022-07-08T10:11:22Z</time>
      </trkpt>
      <trkpt lat="43.29741" lon="1.21797">
        <ele>212</ele>
        <time>2022-07-08T10:11:26Z</time>
      </trkpt>
      <trkpt lat="43.29745" lon="1.2179">
        <ele>212</ele>
        <time>2022-07-08T10:11:32Z</time>
      </trkpt>
      <trkpt lat="43.29748" lon="1.21785">
        <ele>212</ele>
        <time>2022-07-08T10:11:36Z</time>
      </trkpt>
      <trkpt lat="43.29752" lon="1.21782">
        <ele>212</ele>
        <time>2022-07-08T10:11:40Z</time>
      </trkpt>
      <trkpt lat="43.29756" lon="1.2178">
        <ele>212</ele>
        <time>2022-07-08T10:11:47Z</time>
      </trkpt>
      <trkpt lat="43.29771" lon="1.21759">
        <ele>213</ele>
        <time>2022-07-08T10:12:22Z</time>
      </trkpt>
      <trkpt lat="43.29778" lon="1.21742">
        <ele>213</ele>
        <time>2022-07-08T10:12:31Z</time>
      </trkpt>
      <trkpt lat="43.29782" lon="1.21738">
        <ele>213</ele>
        <time>2022-07-08T10:12:33Z</time>
      </trkpt>
      <trkpt lat="43.29784" lon="1.21732">
        <ele>213</ele>
        <time>2022-07-08T10:12:38Z</time>
      </trkpt>
      <trkpt lat="43.29802" lon="1.21704">
        <ele>213</ele>
        <time>2022-07-08T10:13:06Z</time>
      </trkpt>
      <trkpt lat="43.2981" lon="1.21675">
        <ele>213</ele>
        <time>2022-07-08T10:13:27Z</time>
      </trkpt>
      <trkpt lat="43.29815" lon="1.2167">
        <ele>213</ele>
        <time>2022-07-08T10:13:32Z</time>
      </trkpt>
      <trkpt lat="43.29817" lon="1.21662">
        <ele>213</ele>
        <time>2022-07-08T10:13:37Z</time>
      </trkpt>
      <trkpt lat="43.29816" lon="1.21656">
        <ele>213</ele>
        <time>2022-07-08T10:13:41Z</time>
      </trkpt>
      <trkpt lat="43.29818" lon="1.21646">
        <ele>213</ele>
        <time>2022-07-08T10:13:49Z</time>
      </trkpt>
      <trkpt lat="43.29823" lon="1.21636">
        <ele>213</ele>
        <time>2022-07-08T10:13:57Z</time>
      </trkpt>
      <trkpt lat="43.29827" lon="1.21631">
        <ele>213</ele>
        <time>2022-07-08T10:14:02Z</time>
      </trkpt>
      <trkpt lat="43.2983" lon="1.21625">
        <ele>213</ele>
        <time>2022-07-08T10:14:07Z</time>
      </trkpt>
      <trkpt lat="43.29834" lon="1.21621">
        <ele>213</ele>
        <time>2022-07-08T10:14:12Z</time>
      </trkpt>
      <trkpt lat="43.29841" lon="1.21611">
        <ele>213</ele>
        <time>2022-07-08T10:14:25Z</time>
      </trkpt>
      <trkpt lat="43.29843" lon="1.21604">
        <ele>213</ele>
        <time>2022-07-08T10:14:30Z</time>
      </trkpt>
      <trkpt lat="43.29844" lon="1.21598">
        <ele>212</ele>
        <time>2022-07-08T10:14:34Z</time>
      </trkpt>
      <trkpt lat="43.29855" lon="1.21576">
        <ele>212</ele>
        <time>2022-07-08T10:14:56Z</time>
      </trkpt>
      <trkpt lat="43.2986" lon="1.21576">
        <ele>212</ele>
        <time>2022-07-08T10:15:14Z</time>
      </trkpt>
      <trkpt lat="43.29866" lon="1.2156">
        <ele>212</ele>
        <time>2022-07-08T10:15:42Z</time>
      </trkpt>
      <trkpt lat="43.29875" lon="1.21538">
        <ele>213</ele>
        <time>2022-07-08T10:16:01Z</time>
      </trkpt>
      <trkpt lat="43.2988" lon="1.21526">
        <ele>212</ele>
        <time>2022-07-08T10:16:11Z</time>
      </trkpt>
      <trkpt lat="43.29882" lon="1.2152">
        <ele>213</ele>
        <time>2022-07-08T10:16:15Z</time>
      </trkpt>
      <trkpt lat="43.29897" lon="1.21485">
        <ele>212</ele>
        <time>2022-07-08T10:16:45Z</time>
      </trkpt>
      <trkpt lat="43.29898" lon="1.21478">
        <ele>212</ele>
        <time>2022-07-08T10:16:50Z</time>
      </trkpt>
      <trkpt lat="43.29916" lon="1.21447">
        <ele>213</ele>
        <time>2022-07-08T10:17:22Z</time>
      </trkpt>
      <trkpt lat="43.29919" lon="1.21439">
        <ele>213</ele>
        <time>2022-07-08T10:17:28Z</time>
      </trkpt>
      <trkpt lat="43.29915" lon="1.21431">
        <ele>212</ele>
        <time>2022-07-08T10:17:39Z</time>
      </trkpt>
      <trkpt lat="43.29911" lon="1.21426">
        <ele>212</ele>
        <time>2022-07-08T10:17:44Z</time>
      </trkpt>
      <trkpt lat="43.29908" lon="1.21421">
        <ele>213</ele>
        <time>2022-07-08T10:17:49Z</time>
      </trkpt>
      <trkpt lat="43.29884" lon="1.21394">
        <ele>212</ele>
        <time>2022-07-08T10:18:20Z</time>
      </trkpt>
      <trkpt lat="43.29867" lon="1.21372">
        <ele>213</ele>
        <time>2022-07-08T10:18:44Z</time>
      </trkpt>
      <trkpt lat="43.29866" lon="1.21365">
        <ele>213</ele>
        <time>2022-07-08T10:18:49Z</time>
      </trkpt>
      <trkpt lat="43.29865" lon="1.21353">
        <ele>213</ele>
        <time>2022-07-08T10:18:57Z</time>
      </trkpt>
      <trkpt lat="43.29863" lon="1.21347">
        <ele>213</ele>
        <time>2022-07-08T10:19:01Z</time>
      </trkpt>
      <trkpt lat="43.29859" lon="1.21339">
        <ele>213</ele>
        <time>2022-07-08T10:19:10Z</time>
      </trkpt>
      <trkpt lat="43.29857" lon="1.21335">
        <ele>213</ele>
        <time>2022-07-08T10:19:14Z</time>
      </trkpt>
      <trkpt lat="43.29835" lon="1.21309">
        <ele>213</ele>
        <time>2022-07-08T10:19:45Z</time>
      </trkpt>
      <trkpt lat="43.29827" lon="1.21302">
        <ele>213</ele>
        <time>2022-07-08T10:19:55Z</time>
      </trkpt>
      <trkpt lat="43.29824" lon="1.21296">
        <ele>213</ele>
        <time>2022-07-08T10:20:03Z</time>
      </trkpt>
      <trkpt lat="43.29828" lon="1.2129">
        <ele>213</ele>
        <time>2022-07-08T10:20:27Z</time>
      </trkpt>
    </trkseg>
  </trk>
</gpx>